<?xml version="1.0" encoding="UTF-8" standalone="no" ?>
<gpx xmlns="http://www.topografix.com/GPX/1/1" xmlns:xsi="http://www.w3.org/2001/XMLSchema-instance" xsi:schemaLocation="http://www.topografix.com/GPX/1/1 http://www.topografix.com/GPX/1/1/gpx.xsd" version="1.1" creator="VisuGPX - https://www.visugpx.com">
  <metadata>
    <name>2019-05-23-46-Mauroux</name>
    <desc><![CDATA[Randonnée de 11,5 km pour 160m de dénivelé positif. Un beau circuit en sous bois, de la nature, des fleurs et quelques animaux]]></desc>
  </metadata>
  <trk>
    <name><![CDATA[randogps46-184]]></name>
    <trkseg>
      <trkpt lat="44.45189" lon="1.04771">
        <ele>188.08</ele>
        <time>2016-06-24T13:13:06Z</time>
      </trkpt>
      <trkpt lat="44.45191" lon="1.04782">
        <ele>188.08</ele>
        <time>2016-06-24T13:13:24Z</time>
      </trkpt>
      <trkpt lat="44.45194" lon="1.04783">
        <ele>188.08</ele>
        <time>2016-06-24T13:13:35Z</time>
      </trkpt>
      <trkpt lat="44.45194" lon="1.04784">
        <ele>191.44</ele>
        <time>2016-06-24T13:13:42Z</time>
      </trkpt>
      <trkpt lat="44.45193" lon="1.04784">
        <ele>194.8</ele>
        <time>2016-06-24T13:13:46Z</time>
      </trkpt>
      <trkpt lat="44.45193" lon="1.04782">
        <ele>197.69</ele>
        <time>2016-06-24T13:13:51Z</time>
      </trkpt>
      <trkpt lat="44.45193" lon="1.04774">
        <ele>201.53</ele>
        <time>2016-06-24T13:13:57Z</time>
      </trkpt>
      <trkpt lat="44.4519" lon="1.04773">
        <ele>202.98</ele>
        <time>2016-06-24T13:13:59Z</time>
      </trkpt>
      <trkpt lat="44.45183" lon="1.04775">
        <ele>206.82</ele>
        <time>2016-06-24T13:14:06Z</time>
      </trkpt>
      <trkpt lat="44.45179" lon="1.04777">
        <ele>208.26</ele>
        <time>2016-06-24T13:14:09Z</time>
      </trkpt>
      <trkpt lat="44.45174" lon="1.04781">
        <ele>210.19</ele>
        <time>2016-06-24T13:14:14Z</time>
      </trkpt>
      <trkpt lat="44.45164" lon="1.04787">
        <ele>213.07</ele>
        <time>2016-06-24T13:14:23Z</time>
      </trkpt>
      <trkpt lat="44.45161" lon="1.04779">
        <ele>214.51</ele>
        <time>2016-06-24T13:14:29Z</time>
      </trkpt>
      <trkpt lat="44.45158" lon="1.04772">
        <ele>214.99</ele>
        <time>2016-06-24T13:14:34Z</time>
      </trkpt>
      <trkpt lat="44.45158" lon="1.04765">
        <ele>215.47</ele>
        <time>2016-06-24T13:14:41Z</time>
      </trkpt>
      <trkpt lat="44.45158" lon="1.0475">
        <ele>214.99</ele>
        <time>2016-06-24T13:14:52Z</time>
      </trkpt>
      <trkpt lat="44.45156" lon="1.04729">
        <ele>214.99</ele>
        <time>2016-06-24T13:15:03Z</time>
      </trkpt>
      <trkpt lat="44.45157" lon="1.04722">
        <ele>214.99</ele>
        <time>2016-06-24T13:15:07Z</time>
      </trkpt>
      <trkpt lat="44.45156" lon="1.04708">
        <ele>214.99</ele>
        <time>2016-06-24T13:15:14Z</time>
      </trkpt>
      <trkpt lat="44.45153" lon="1.04686">
        <ele>214.99</ele>
        <time>2016-06-24T13:15:25Z</time>
      </trkpt>
      <trkpt lat="44.45153" lon="1.04663">
        <ele>214.99</ele>
        <time>2016-06-24T13:15:38Z</time>
      </trkpt>
      <trkpt lat="44.45153" lon="1.04657">
        <ele>214.99</ele>
        <time>2016-06-24T13:15:41Z</time>
      </trkpt>
      <trkpt lat="44.45151" lon="1.04642">
        <ele>214.99</ele>
        <time>2016-06-24T13:15:49Z</time>
      </trkpt>
      <trkpt lat="44.45152" lon="1.04627">
        <ele>214.99</ele>
        <time>2016-06-24T13:15:58Z</time>
      </trkpt>
      <trkpt lat="44.45154" lon="1.04622">
        <ele>215.95</ele>
        <time>2016-06-24T13:16:01Z</time>
      </trkpt>
      <trkpt lat="44.45157" lon="1.04611">
        <ele>215.95</ele>
        <time>2016-06-24T13:16:07Z</time>
      </trkpt>
      <trkpt lat="44.4516" lon="1.04603">
        <ele>215.95</ele>
        <time>2016-06-24T13:16:12Z</time>
      </trkpt>
      <trkpt lat="44.45161" lon="1.046">
        <ele>215.95</ele>
        <time>2016-06-24T13:16:14Z</time>
      </trkpt>
      <trkpt lat="44.45161" lon="1.04592">
        <ele>215.95</ele>
        <time>2016-06-24T13:16:18Z</time>
      </trkpt>
      <trkpt lat="44.45165" lon="1.04587">
        <ele>215.95</ele>
        <time>2016-06-24T13:16:22Z</time>
      </trkpt>
      <trkpt lat="44.45169" lon="1.04578">
        <ele>215.95</ele>
        <time>2016-06-24T13:16:28Z</time>
      </trkpt>
      <trkpt lat="44.45173" lon="1.04568">
        <ele>215.95</ele>
        <time>2016-06-24T13:16:33Z</time>
      </trkpt>
      <trkpt lat="44.45174" lon="1.04562">
        <ele>215.95</ele>
        <time>2016-06-24T13:16:36Z</time>
      </trkpt>
      <trkpt lat="44.45177" lon="1.04555">
        <ele>215.95</ele>
        <time>2016-06-24T13:16:40Z</time>
      </trkpt>
      <trkpt lat="44.4518" lon="1.04542">
        <ele>215.95</ele>
        <time>2016-06-24T13:16:48Z</time>
      </trkpt>
      <trkpt lat="44.45194" lon="1.04526">
        <ele>216.43</ele>
        <time>2016-06-24T13:17:02Z</time>
      </trkpt>
      <trkpt lat="44.45202" lon="1.04508">
        <ele>216.43</ele>
        <time>2016-06-24T13:17:13Z</time>
      </trkpt>
      <trkpt lat="44.45208" lon="1.04503">
        <ele>216.43</ele>
        <time>2016-06-24T13:17:18Z</time>
      </trkpt>
      <trkpt lat="44.45209" lon="1.04499">
        <ele>216.43</ele>
        <time>2016-06-24T13:17:20Z</time>
      </trkpt>
      <trkpt lat="44.45211" lon="1.04493">
        <ele>216.43</ele>
        <time>2016-06-24T13:17:24Z</time>
      </trkpt>
      <trkpt lat="44.45217" lon="1.0448">
        <ele>216.43</ele>
        <time>2016-06-24T13:17:32Z</time>
      </trkpt>
      <trkpt lat="44.45227" lon="1.04464">
        <ele>216.91</ele>
        <time>2016-06-24T13:17:44Z</time>
      </trkpt>
      <trkpt lat="44.45228" lon="1.04463">
        <ele>216.91</ele>
        <time>2016-06-24T13:17:45Z</time>
      </trkpt>
      <trkpt lat="44.45235" lon="1.04454">
        <ele>215.95</ele>
        <time>2016-06-24T13:17:53Z</time>
      </trkpt>
      <trkpt lat="44.45243" lon="1.0444">
        <ele>215.47</ele>
        <time>2016-06-24T13:18:03Z</time>
      </trkpt>
      <trkpt lat="44.45245" lon="1.04438">
        <ele>215.95</ele>
        <time>2016-06-24T13:18:05Z</time>
      </trkpt>
      <trkpt lat="44.4525" lon="1.04422">
        <ele>214.51</ele>
        <time>2016-06-24T13:18:14Z</time>
      </trkpt>
      <trkpt lat="44.45251" lon="1.04419">
        <ele>214.99</ele>
        <time>2016-06-24T13:18:16Z</time>
      </trkpt>
      <trkpt lat="44.45258" lon="1.04406">
        <ele>214.51</ele>
        <time>2016-06-24T13:18:24Z</time>
      </trkpt>
      <trkpt lat="44.45261" lon="1.04405">
        <ele>214.51</ele>
        <time>2016-06-24T13:18:27Z</time>
      </trkpt>
      <trkpt lat="44.45265" lon="1.04398">
        <ele>214.03</ele>
        <time>2016-06-24T13:18:32Z</time>
      </trkpt>
      <trkpt lat="44.45265" lon="1.04396">
        <ele>214.03</ele>
        <time>2016-06-24T13:18:33Z</time>
      </trkpt>
      <trkpt lat="44.45269" lon="1.04384">
        <ele>213.55</ele>
        <time>2016-06-24T13:18:41Z</time>
      </trkpt>
      <trkpt lat="44.4527" lon="1.04382">
        <ele>213.55</ele>
        <time>2016-06-24T13:18:42Z</time>
      </trkpt>
      <trkpt lat="44.4527" lon="1.04374">
        <ele>213.55</ele>
        <time>2016-06-24T13:18:46Z</time>
      </trkpt>
      <trkpt lat="44.45267" lon="1.04367">
        <ele>213.07</ele>
        <time>2016-06-24T13:18:50Z</time>
      </trkpt>
      <trkpt lat="44.45271" lon="1.04357">
        <ele>213.07</ele>
        <time>2016-06-24T13:18:58Z</time>
      </trkpt>
      <trkpt lat="44.45272" lon="1.04351">
        <ele>212.59</ele>
        <time>2016-06-24T13:19:02Z</time>
      </trkpt>
      <trkpt lat="44.45273" lon="1.0434">
        <ele>212.59</ele>
        <time>2016-06-24T13:19:07Z</time>
      </trkpt>
      <trkpt lat="44.45279" lon="1.04329">
        <ele>212.11</ele>
        <time>2016-06-24T13:19:14Z</time>
      </trkpt>
      <trkpt lat="44.45284" lon="1.04317">
        <ele>211.63</ele>
        <time>2016-06-24T13:19:21Z</time>
      </trkpt>
      <trkpt lat="44.45292" lon="1.04284">
        <ele>210.67</ele>
        <time>2016-06-24T13:19:36Z</time>
      </trkpt>
      <trkpt lat="44.45306" lon="1.04258">
        <ele>210.19</ele>
        <time>2016-06-24T13:19:53Z</time>
      </trkpt>
      <trkpt lat="44.4532" lon="1.04239">
        <ele>209.7</ele>
        <time>2016-06-24T13:20:08Z</time>
      </trkpt>
      <trkpt lat="44.45338" lon="1.0423">
        <ele>209.22</ele>
        <time>2016-06-24T13:20:23Z</time>
      </trkpt>
      <trkpt lat="44.45347" lon="1.04225">
        <ele>209.22</ele>
        <time>2016-06-24T13:20:30Z</time>
      </trkpt>
      <trkpt lat="44.45363" lon="1.04215">
        <ele>209.22</ele>
        <time>2016-06-24T13:20:43Z</time>
      </trkpt>
      <trkpt lat="44.45371" lon="1.04211">
        <ele>209.22</ele>
        <time>2016-06-24T13:20:50Z</time>
      </trkpt>
      <trkpt lat="44.45389" lon="1.04202">
        <ele>210.19</ele>
        <time>2016-06-24T13:21:04Z</time>
      </trkpt>
      <trkpt lat="44.45396" lon="1.04199">
        <ele>210.67</ele>
        <time>2016-06-24T13:21:10Z</time>
      </trkpt>
      <trkpt lat="44.45408" lon="1.04195">
        <ele>211.15</ele>
        <time>2016-06-24T13:21:21Z</time>
      </trkpt>
      <trkpt lat="44.45422" lon="1.04191">
        <ele>212.11</ele>
        <time>2016-06-24T13:21:34Z</time>
      </trkpt>
      <trkpt lat="44.45425" lon="1.04191">
        <ele>212.11</ele>
        <time>2016-06-24T13:21:36Z</time>
      </trkpt>
      <trkpt lat="44.45428" lon="1.04189">
        <ele>212.59</ele>
        <time>2016-06-24T13:21:39Z</time>
      </trkpt>
      <trkpt lat="44.45432" lon="1.04189">
        <ele>212.59</ele>
        <time>2016-06-24T13:21:42Z</time>
      </trkpt>
      <trkpt lat="44.45439" lon="1.04187">
        <ele>213.07</ele>
        <time>2016-06-24T13:21:47Z</time>
      </trkpt>
      <trkpt lat="44.45446" lon="1.04185">
        <ele>214.03</ele>
        <time>2016-06-24T13:21:53Z</time>
      </trkpt>
      <trkpt lat="44.45454" lon="1.04185">
        <ele>213.55</ele>
        <time>2016-06-24T13:21:59Z</time>
      </trkpt>
      <trkpt lat="44.4546" lon="1.04185">
        <ele>214.03</ele>
        <time>2016-06-24T13:22:03Z</time>
      </trkpt>
      <trkpt lat="44.45473" lon="1.04183">
        <ele>214.51</ele>
        <time>2016-06-24T13:22:13Z</time>
      </trkpt>
      <trkpt lat="44.45485" lon="1.04181">
        <ele>215.47</ele>
        <time>2016-06-24T13:22:22Z</time>
      </trkpt>
      <trkpt lat="44.45502" lon="1.0418">
        <ele>216.91</ele>
        <time>2016-06-24T13:22:36Z</time>
      </trkpt>
      <trkpt lat="44.45503" lon="1.04179">
        <ele>216.43</ele>
        <time>2016-06-24T13:22:37Z</time>
      </trkpt>
      <trkpt lat="44.45519" lon="1.0418">
        <ele>216.91</ele>
        <time>2016-06-24T13:22:50Z</time>
      </trkpt>
      <trkpt lat="44.45534" lon="1.04181">
        <ele>217.4</ele>
        <time>2016-06-24T13:23:02Z</time>
      </trkpt>
      <trkpt lat="44.45544" lon="1.04184">
        <ele>217.88</ele>
        <time>2016-06-24T13:23:09Z</time>
      </trkpt>
      <trkpt lat="44.45554" lon="1.0419">
        <ele>218.84</ele>
        <time>2016-06-24T13:23:18Z</time>
      </trkpt>
      <trkpt lat="44.45568" lon="1.042">
        <ele>219.8</ele>
        <time>2016-06-24T13:23:30Z</time>
      </trkpt>
      <trkpt lat="44.45585" lon="1.0421">
        <ele>220.28</ele>
        <time>2016-06-24T13:23:43Z</time>
      </trkpt>
      <trkpt lat="44.45591" lon="1.04212">
        <ele>220.28</ele>
        <time>2016-06-24T13:23:47Z</time>
      </trkpt>
      <trkpt lat="44.456" lon="1.04218">
        <ele>220.28</ele>
        <time>2016-06-24T13:23:54Z</time>
      </trkpt>
      <trkpt lat="44.4562" lon="1.04228">
        <ele>219.8</ele>
        <time>2016-06-24T13:24:10Z</time>
      </trkpt>
      <trkpt lat="44.45625" lon="1.04229">
        <ele>219.8</ele>
        <time>2016-06-24T13:24:14Z</time>
      </trkpt>
      <trkpt lat="44.45627" lon="1.04226">
        <ele>219.8</ele>
        <time>2016-06-24T13:24:17Z</time>
      </trkpt>
      <trkpt lat="44.4563" lon="1.04212">
        <ele>219.8</ele>
        <time>2016-06-24T13:24:25Z</time>
      </trkpt>
      <trkpt lat="44.45632" lon="1.04206">
        <ele>219.8</ele>
        <time>2016-06-24T13:24:29Z</time>
      </trkpt>
      <trkpt lat="44.45634" lon="1.04181">
        <ele>218.84</ele>
        <time>2016-06-24T13:24:42Z</time>
      </trkpt>
      <trkpt lat="44.45638" lon="1.0415">
        <ele>216.43</ele>
        <time>2016-06-24T13:24:57Z</time>
      </trkpt>
      <trkpt lat="44.45645" lon="1.04122">
        <ele>214.03</ele>
        <time>2016-06-24T13:25:12Z</time>
      </trkpt>
      <trkpt lat="44.45649" lon="1.04111">
        <ele>213.07</ele>
        <time>2016-06-24T13:25:23Z</time>
      </trkpt>
      <trkpt lat="44.4565" lon="1.04112">
        <ele>212.11</ele>
        <time>2016-06-24T13:25:37Z</time>
      </trkpt>
      <trkpt lat="44.45657" lon="1.04087">
        <ele>210.67</ele>
        <time>2016-06-24T13:25:53Z</time>
      </trkpt>
      <trkpt lat="44.45663" lon="1.04067">
        <ele>208.74</ele>
        <time>2016-06-24T13:26:05Z</time>
      </trkpt>
      <trkpt lat="44.45665" lon="1.04056">
        <ele>207.78</ele>
        <time>2016-06-24T13:26:11Z</time>
      </trkpt>
      <trkpt lat="44.45669" lon="1.04045">
        <ele>204.42</ele>
        <time>2016-06-24T13:26:18Z</time>
      </trkpt>
      <trkpt lat="44.45672" lon="1.04035">
        <ele>200.09</ele>
        <time>2016-06-24T13:26:24Z</time>
      </trkpt>
      <trkpt lat="44.45676" lon="1.04021">
        <ele>199.13</ele>
        <time>2016-06-24T13:26:32Z</time>
      </trkpt>
      <trkpt lat="44.45691" lon="1.04004">
        <ele>197.21</ele>
        <time>2016-06-24T13:26:48Z</time>
      </trkpt>
      <trkpt lat="44.45695" lon="1.04002">
        <ele>196.25</ele>
        <time>2016-06-24T13:26:51Z</time>
      </trkpt>
      <trkpt lat="44.45701" lon="1.03998">
        <ele>192.88</ele>
        <time>2016-06-24T13:26:57Z</time>
      </trkpt>
      <trkpt lat="44.45707" lon="1.03991">
        <ele>188.56</ele>
        <time>2016-06-24T13:27:04Z</time>
      </trkpt>
      <trkpt lat="44.45709" lon="1.0399">
        <ele>189.04</ele>
        <time>2016-06-24T13:27:07Z</time>
      </trkpt>
      <trkpt lat="44.45716" lon="1.03986">
        <ele>188.56</ele>
        <time>2016-06-24T13:27:13Z</time>
      </trkpt>
      <trkpt lat="44.45735" lon="1.03973">
        <ele>187.59</ele>
        <time>2016-06-24T13:27:29Z</time>
      </trkpt>
      <trkpt lat="44.4574" lon="1.03972">
        <ele>187.11</ele>
        <time>2016-06-24T13:27:33Z</time>
      </trkpt>
      <trkpt lat="44.45744" lon="1.03972">
        <ele>186.63</ele>
        <time>2016-06-24T13:27:36Z</time>
      </trkpt>
      <trkpt lat="44.45746" lon="1.03972">
        <ele>185.67</ele>
        <time>2016-06-24T13:27:38Z</time>
      </trkpt>
      <trkpt lat="44.45755" lon="1.0397">
        <ele>183.75</ele>
        <time>2016-06-24T13:27:47Z</time>
      </trkpt>
      <trkpt lat="44.45756" lon="1.03967">
        <ele>183.27</ele>
        <time>2016-06-24T13:27:49Z</time>
      </trkpt>
      <trkpt lat="44.45752" lon="1.03944">
        <ele>181.83</ele>
        <time>2016-06-24T13:28:03Z</time>
      </trkpt>
      <trkpt lat="44.45751" lon="1.03937">
        <ele>181.83</ele>
        <time>2016-06-24T13:28:07Z</time>
      </trkpt>
      <trkpt lat="44.45751" lon="1.03924">
        <ele>181.83</ele>
        <time>2016-06-24T13:28:14Z</time>
      </trkpt>
      <trkpt lat="44.4575" lon="1.03895">
        <ele>180.87</ele>
        <time>2016-06-24T13:28:30Z</time>
      </trkpt>
      <trkpt lat="44.4575" lon="1.03871">
        <ele>179.9</ele>
        <time>2016-06-24T13:28:43Z</time>
      </trkpt>
      <trkpt lat="44.45748" lon="1.0384">
        <ele>179.42</ele>
        <time>2016-06-24T13:28:58Z</time>
      </trkpt>
      <trkpt lat="44.45748" lon="1.03812">
        <ele>178.46</ele>
        <time>2016-06-24T13:29:12Z</time>
      </trkpt>
      <trkpt lat="44.45749" lon="1.03811">
        <ele>178.46</ele>
        <time>2016-06-24T13:29:13Z</time>
      </trkpt>
      <trkpt lat="44.45752" lon="1.03779">
        <ele>177.98</ele>
        <time>2016-06-24T13:29:29Z</time>
      </trkpt>
      <trkpt lat="44.45758" lon="1.03746">
        <ele>176.54</ele>
        <time>2016-06-24T13:29:47Z</time>
      </trkpt>
      <trkpt lat="44.45761" lon="1.03725">
        <ele>176.54</ele>
        <time>2016-06-24T13:29:58Z</time>
      </trkpt>
      <trkpt lat="44.45766" lon="1.03719">
        <ele>176.06</ele>
        <time>2016-06-24T13:30:04Z</time>
      </trkpt>
      <trkpt lat="44.45771" lon="1.03718">
        <ele>176.06</ele>
        <time>2016-06-24T13:30:08Z</time>
      </trkpt>
      <trkpt lat="44.45784" lon="1.03724">
        <ele>175.58</ele>
        <time>2016-06-24T13:30:19Z</time>
      </trkpt>
      <trkpt lat="44.45788" lon="1.03723">
        <ele>175.58</ele>
        <time>2016-06-24T13:30:22Z</time>
      </trkpt>
      <trkpt lat="44.45803" lon="1.03725">
        <ele>175.58</ele>
        <time>2016-06-24T13:30:36Z</time>
      </trkpt>
      <trkpt lat="44.45814" lon="1.03726">
        <ele>176.54</ele>
        <time>2016-06-24T13:30:46Z</time>
      </trkpt>
      <trkpt lat="44.45819" lon="1.03725">
        <ele>177.02</ele>
        <time>2016-06-24T13:30:50Z</time>
      </trkpt>
      <trkpt lat="44.45823" lon="1.03721">
        <ele>177.5</ele>
        <time>2016-06-24T13:30:55Z</time>
      </trkpt>
      <trkpt lat="44.45824" lon="1.03718">
        <ele>177.5</ele>
        <time>2016-06-24T13:30:57Z</time>
      </trkpt>
      <trkpt lat="44.45827" lon="1.03715">
        <ele>177.98</ele>
        <time>2016-06-24T13:31:00Z</time>
      </trkpt>
      <trkpt lat="44.45835" lon="1.03699">
        <ele>179.9</ele>
        <time>2016-06-24T13:31:13Z</time>
      </trkpt>
      <trkpt lat="44.45841" lon="1.03684">
        <ele>181.35</ele>
        <time>2016-06-24T13:31:23Z</time>
      </trkpt>
      <trkpt lat="44.45846" lon="1.0367">
        <ele>182.79</ele>
        <time>2016-06-24T13:31:34Z</time>
      </trkpt>
      <trkpt lat="44.45849" lon="1.03667">
        <ele>183.27</ele>
        <time>2016-06-24T13:31:37Z</time>
      </trkpt>
      <trkpt lat="44.45853" lon="1.0366">
        <ele>183.75</ele>
        <time>2016-06-24T13:31:43Z</time>
      </trkpt>
      <trkpt lat="44.45856" lon="1.03657">
        <ele>184.71</ele>
        <time>2016-06-24T13:31:47Z</time>
      </trkpt>
      <trkpt lat="44.45859" lon="1.03651">
        <ele>185.67</ele>
        <time>2016-06-24T13:31:52Z</time>
      </trkpt>
      <trkpt lat="44.45864" lon="1.03637">
        <ele>187.11</ele>
        <time>2016-06-24T13:32:02Z</time>
      </trkpt>
      <trkpt lat="44.4587" lon="1.03621">
        <ele>189.52</ele>
        <time>2016-06-24T13:32:14Z</time>
      </trkpt>
      <trkpt lat="44.45874" lon="1.03627">
        <ele>190.48</ele>
        <time>2016-06-24T13:32:21Z</time>
      </trkpt>
      <trkpt lat="44.45875" lon="1.03632">
        <ele>190.96</ele>
        <time>2016-06-24T13:32:24Z</time>
      </trkpt>
      <trkpt lat="44.45878" lon="1.03647">
        <ele>192.4</ele>
        <time>2016-06-24T13:32:36Z</time>
      </trkpt>
      <trkpt lat="44.45881" lon="1.03657">
        <ele>193.36</ele>
        <time>2016-06-24T13:32:45Z</time>
      </trkpt>
      <trkpt lat="44.45886" lon="1.03674">
        <ele>195.77</ele>
        <time>2016-06-24T13:32:57Z</time>
      </trkpt>
      <trkpt lat="44.4589" lon="1.03696">
        <ele>198.17</ele>
        <time>2016-06-24T13:33:12Z</time>
      </trkpt>
      <trkpt lat="44.45892" lon="1.03701">
        <ele>198.65</ele>
        <time>2016-06-24T13:33:15Z</time>
      </trkpt>
      <trkpt lat="44.45891" lon="1.03706">
        <ele>199.13</ele>
        <time>2016-06-24T13:33:18Z</time>
      </trkpt>
      <trkpt lat="44.45893" lon="1.03716">
        <ele>199.61</ele>
        <time>2016-06-24T13:33:24Z</time>
      </trkpt>
      <trkpt lat="44.45896" lon="1.03734">
        <ele>201.53</ele>
        <time>2016-06-24T13:33:39Z</time>
      </trkpt>
      <trkpt lat="44.45899" lon="1.03751">
        <ele>202.98</ele>
        <time>2016-06-24T13:33:50Z</time>
      </trkpt>
      <trkpt lat="44.459" lon="1.03762">
        <ele>204.9</ele>
        <time>2016-06-24T13:33:57Z</time>
      </trkpt>
      <trkpt lat="44.45906" lon="1.0376">
        <ele>206.34</ele>
        <time>2016-06-24T13:34:09Z</time>
      </trkpt>
      <trkpt lat="44.45906" lon="1.03759">
        <ele>206.34</ele>
        <time>2016-06-24T13:34:10Z</time>
      </trkpt>
      <trkpt lat="44.45908" lon="1.03746">
        <ele>207.78</ele>
        <time>2016-06-24T13:34:20Z</time>
      </trkpt>
      <trkpt lat="44.4591" lon="1.03743">
        <ele>207.78</ele>
        <time>2016-06-24T13:34:23Z</time>
      </trkpt>
      <trkpt lat="44.45914" lon="1.03731">
        <ele>209.7</ele>
        <time>2016-06-24T13:34:35Z</time>
      </trkpt>
      <trkpt lat="44.45917" lon="1.03729">
        <ele>210.67</ele>
        <time>2016-06-24T13:34:41Z</time>
      </trkpt>
      <trkpt lat="44.45926" lon="1.03741">
        <ele>212.11</ele>
        <time>2016-06-24T13:34:53Z</time>
      </trkpt>
      <trkpt lat="44.45935" lon="1.03749">
        <ele>214.51</ele>
        <time>2016-06-24T13:35:05Z</time>
      </trkpt>
      <trkpt lat="44.45947" lon="1.03756">
        <ele>216.43</ele>
        <time>2016-06-24T13:35:19Z</time>
      </trkpt>
      <trkpt lat="44.45949" lon="1.03759">
        <ele>216.43</ele>
        <time>2016-06-24T13:35:21Z</time>
      </trkpt>
      <trkpt lat="44.45963" lon="1.03767">
        <ele>217.88</ele>
        <time>2016-06-24T13:35:34Z</time>
      </trkpt>
      <trkpt lat="44.45965" lon="1.03767">
        <ele>217.88</ele>
        <time>2016-06-24T13:35:36Z</time>
      </trkpt>
      <trkpt lat="44.45969" lon="1.03773">
        <ele>218.36</ele>
        <time>2016-06-24T13:35:47Z</time>
      </trkpt>
      <trkpt lat="44.45968" lon="1.03773">
        <ele>218.36</ele>
        <time>2016-06-24T13:35:52Z</time>
      </trkpt>
      <trkpt lat="44.45974" lon="1.03789">
        <ele>218.36</ele>
        <time>2016-06-24T13:36:04Z</time>
      </trkpt>
      <trkpt lat="44.45983" lon="1.03808">
        <ele>218.36</ele>
        <time>2016-06-24T13:36:16Z</time>
      </trkpt>
      <trkpt lat="44.45991" lon="1.03831">
        <ele>216.91</ele>
        <time>2016-06-24T13:36:30Z</time>
      </trkpt>
      <trkpt lat="44.45999" lon="1.03852">
        <ele>216.91</ele>
        <time>2016-06-24T13:36:43Z</time>
      </trkpt>
      <trkpt lat="44.46007" lon="1.03863">
        <ele>216.91</ele>
        <time>2016-06-24T13:36:52Z</time>
      </trkpt>
      <trkpt lat="44.46013" lon="1.03868">
        <ele>216.91</ele>
        <time>2016-06-24T13:36:58Z</time>
      </trkpt>
      <trkpt lat="44.4603" lon="1.03878">
        <ele>216.91</ele>
        <time>2016-06-24T13:37:12Z</time>
      </trkpt>
      <trkpt lat="44.46043" lon="1.03884">
        <ele>216.91</ele>
        <time>2016-06-24T13:37:23Z</time>
      </trkpt>
      <trkpt lat="44.4605" lon="1.03887">
        <ele>216.91</ele>
        <time>2016-06-24T13:37:28Z</time>
      </trkpt>
      <trkpt lat="44.46066" lon="1.03891">
        <ele>216.91</ele>
        <time>2016-06-24T13:37:42Z</time>
      </trkpt>
      <trkpt lat="44.46072" lon="1.03893">
        <ele>216.91</ele>
        <time>2016-06-24T13:37:46Z</time>
      </trkpt>
      <trkpt lat="44.46089" lon="1.03899">
        <ele>217.4</ele>
        <time>2016-06-24T13:37:59Z</time>
      </trkpt>
      <trkpt lat="44.46107" lon="1.03906">
        <ele>217.88</ele>
        <time>2016-06-24T13:38:12Z</time>
      </trkpt>
      <trkpt lat="44.46123" lon="1.03912">
        <ele>217.88</ele>
        <time>2016-06-24T13:38:25Z</time>
      </trkpt>
      <trkpt lat="44.46136" lon="1.03916">
        <ele>218.36</ele>
        <time>2016-06-24T13:38:35Z</time>
      </trkpt>
      <trkpt lat="44.46144" lon="1.03919">
        <ele>218.36</ele>
        <time>2016-06-24T13:38:40Z</time>
      </trkpt>
      <trkpt lat="44.46168" lon="1.03924">
        <ele>218.36</ele>
        <time>2016-06-24T13:38:57Z</time>
      </trkpt>
      <trkpt lat="44.4619" lon="1.03928">
        <ele>218.84</ele>
        <time>2016-06-24T13:39:12Z</time>
      </trkpt>
      <trkpt lat="44.46196" lon="1.0393">
        <ele>218.36</ele>
        <time>2016-06-24T13:39:16Z</time>
      </trkpt>
      <trkpt lat="44.46201" lon="1.03934">
        <ele>218.36</ele>
        <time>2016-06-24T13:39:20Z</time>
      </trkpt>
      <trkpt lat="44.46222" lon="1.03944">
        <ele>218.36</ele>
        <time>2016-06-24T13:39:36Z</time>
      </trkpt>
      <trkpt lat="44.46238" lon="1.03953">
        <ele>219.32</ele>
        <time>2016-06-24T13:39:49Z</time>
      </trkpt>
      <trkpt lat="44.46255" lon="1.0396">
        <ele>219.8</ele>
        <time>2016-06-24T13:40:02Z</time>
      </trkpt>
      <trkpt lat="44.4627" lon="1.03965">
        <ele>220.76</ele>
        <time>2016-06-24T13:40:13Z</time>
      </trkpt>
      <trkpt lat="44.46281" lon="1.03968">
        <ele>221.72</ele>
        <time>2016-06-24T13:40:22Z</time>
      </trkpt>
      <trkpt lat="44.46302" lon="1.03972">
        <ele>222.68</ele>
        <time>2016-06-24T13:40:37Z</time>
      </trkpt>
      <trkpt lat="44.46322" lon="1.03977">
        <ele>223.64</ele>
        <time>2016-06-24T13:40:52Z</time>
      </trkpt>
      <trkpt lat="44.46342" lon="1.03979">
        <ele>224.12</ele>
        <time>2016-06-24T13:41:06Z</time>
      </trkpt>
      <trkpt lat="44.46354" lon="1.03981">
        <ele>223.64</ele>
        <time>2016-06-24T13:41:14Z</time>
      </trkpt>
      <trkpt lat="44.4636" lon="1.03983">
        <ele>223.64</ele>
        <time>2016-06-24T13:41:19Z</time>
      </trkpt>
      <trkpt lat="44.46377" lon="1.03986">
        <ele>223.64</ele>
        <time>2016-06-24T13:41:31Z</time>
      </trkpt>
      <trkpt lat="44.46399" lon="1.03988">
        <ele>223.64</ele>
        <time>2016-06-24T13:41:46Z</time>
      </trkpt>
      <trkpt lat="44.464" lon="1.03988">
        <ele>223.64</ele>
        <time>2016-06-24T13:41:47Z</time>
      </trkpt>
      <trkpt lat="44.46422" lon="1.03992">
        <ele>223.64</ele>
        <time>2016-06-24T13:42:03Z</time>
      </trkpt>
      <trkpt lat="44.4644" lon="1.03994">
        <ele>223.64</ele>
        <time>2016-06-24T13:42:16Z</time>
      </trkpt>
      <trkpt lat="44.4646" lon="1.03999">
        <ele>223.64</ele>
        <time>2016-06-24T13:42:30Z</time>
      </trkpt>
      <trkpt lat="44.46477" lon="1.04008">
        <ele>223.64</ele>
        <time>2016-06-24T13:42:43Z</time>
      </trkpt>
      <trkpt lat="44.46485" lon="1.0401">
        <ele>223.64</ele>
        <time>2016-06-24T13:42:49Z</time>
      </trkpt>
      <trkpt lat="44.465" lon="1.04016">
        <ele>224.61</ele>
        <time>2016-06-24T13:43:01Z</time>
      </trkpt>
      <trkpt lat="44.46518" lon="1.04023">
        <ele>225.09</ele>
        <time>2016-06-24T13:43:15Z</time>
      </trkpt>
      <trkpt lat="44.4652" lon="1.04025">
        <ele>225.09</ele>
        <time>2016-06-24T13:43:17Z</time>
      </trkpt>
      <trkpt lat="44.46521" lon="1.04034">
        <ele>225.57</ele>
        <time>2016-06-24T13:43:22Z</time>
      </trkpt>
      <trkpt lat="44.46518" lon="1.04046">
        <ele>225.57</ele>
        <time>2016-06-24T13:43:30Z</time>
      </trkpt>
      <trkpt lat="44.46515" lon="1.04054">
        <ele>225.57</ele>
        <time>2016-06-24T13:43:35Z</time>
      </trkpt>
      <trkpt lat="44.4651" lon="1.04067">
        <ele>225.57</ele>
        <time>2016-06-24T13:43:43Z</time>
      </trkpt>
      <trkpt lat="44.46505" lon="1.0408">
        <ele>225.57</ele>
        <time>2016-06-24T13:43:51Z</time>
      </trkpt>
      <trkpt lat="44.46502" lon="1.04086">
        <ele>225.09</ele>
        <time>2016-06-24T13:43:55Z</time>
      </trkpt>
      <trkpt lat="44.46496" lon="1.04104">
        <ele>225.09</ele>
        <time>2016-06-24T13:44:05Z</time>
      </trkpt>
      <trkpt lat="44.46492" lon="1.04128">
        <ele>224.12</ele>
        <time>2016-06-24T13:44:18Z</time>
      </trkpt>
      <trkpt lat="44.4649" lon="1.04135">
        <ele>224.12</ele>
        <time>2016-06-24T13:44:22Z</time>
      </trkpt>
      <trkpt lat="44.46487" lon="1.04148">
        <ele>224.12</ele>
        <time>2016-06-24T13:44:29Z</time>
      </trkpt>
      <trkpt lat="44.46485" lon="1.0416">
        <ele>224.12</ele>
        <time>2016-06-24T13:44:35Z</time>
      </trkpt>
      <trkpt lat="44.46483" lon="1.0417">
        <ele>223.64</ele>
        <time>2016-06-24T13:44:40Z</time>
      </trkpt>
      <trkpt lat="44.46478" lon="1.04192">
        <ele>223.16</ele>
        <time>2016-06-24T13:44:52Z</time>
      </trkpt>
      <trkpt lat="44.46474" lon="1.04215">
        <ele>222.68</ele>
        <time>2016-06-24T13:45:05Z</time>
      </trkpt>
      <trkpt lat="44.46469" lon="1.0423">
        <ele>222.68</ele>
        <time>2016-06-24T13:45:14Z</time>
      </trkpt>
      <trkpt lat="44.46456" lon="1.04228">
        <ele>222.2</ele>
        <time>2016-06-24T13:45:26Z</time>
      </trkpt>
      <trkpt lat="44.46436" lon="1.04227">
        <ele>220.76</ele>
        <time>2016-06-24T13:45:40Z</time>
      </trkpt>
      <trkpt lat="44.46418" lon="1.04227">
        <ele>219.32</ele>
        <time>2016-06-24T13:45:53Z</time>
      </trkpt>
      <trkpt lat="44.46402" lon="1.04226">
        <ele>218.84</ele>
        <time>2016-06-24T13:46:06Z</time>
      </trkpt>
      <trkpt lat="44.46387" lon="1.04225">
        <ele>217.88</ele>
        <time>2016-06-24T13:46:19Z</time>
      </trkpt>
      <trkpt lat="44.46379" lon="1.04225">
        <ele>217.4</ele>
        <time>2016-06-24T13:46:25Z</time>
      </trkpt>
      <trkpt lat="44.46362" lon="1.04228">
        <ele>216.91</ele>
        <time>2016-06-24T13:46:39Z</time>
      </trkpt>
      <trkpt lat="44.46354" lon="1.04227">
        <ele>216.91</ele>
        <time>2016-06-24T13:46:44Z</time>
      </trkpt>
      <trkpt lat="44.4634" lon="1.04226">
        <ele>216.43</ele>
        <time>2016-06-24T13:46:55Z</time>
      </trkpt>
      <trkpt lat="44.46337" lon="1.04225">
        <ele>215.95</ele>
        <time>2016-06-24T13:46:58Z</time>
      </trkpt>
      <trkpt lat="44.46334" lon="1.04224">
        <ele>215.95</ele>
        <time>2016-06-24T13:47:00Z</time>
      </trkpt>
      <trkpt lat="44.46315" lon="1.04214">
        <ele>214.03</ele>
        <time>2016-06-24T13:47:15Z</time>
      </trkpt>
      <trkpt lat="44.46309" lon="1.04212">
        <ele>213.55</ele>
        <time>2016-06-24T13:47:19Z</time>
      </trkpt>
      <trkpt lat="44.46289" lon="1.04213">
        <ele>210.19</ele>
        <time>2016-06-24T13:47:33Z</time>
      </trkpt>
      <trkpt lat="44.46283" lon="1.04218">
        <ele>207.3</ele>
        <time>2016-06-24T13:47:39Z</time>
      </trkpt>
      <trkpt lat="44.46277" lon="1.04223">
        <ele>203.94</ele>
        <time>2016-06-24T13:47:44Z</time>
      </trkpt>
      <trkpt lat="44.46268" lon="1.0423">
        <ele>202.98</ele>
        <time>2016-06-24T13:47:52Z</time>
      </trkpt>
      <trkpt lat="44.46266" lon="1.04231">
        <ele>202.98</ele>
        <time>2016-06-24T13:47:54Z</time>
      </trkpt>
      <trkpt lat="44.46262" lon="1.04233">
        <ele>202.98</ele>
        <time>2016-06-24T13:47:57Z</time>
      </trkpt>
      <trkpt lat="44.46258" lon="1.04235">
        <ele>202.98</ele>
        <time>2016-06-24T13:48:00Z</time>
      </trkpt>
      <trkpt lat="44.46252" lon="1.04236">
        <ele>202.01</ele>
        <time>2016-06-24T13:48:06Z</time>
      </trkpt>
      <trkpt lat="44.46239" lon="1.04229">
        <ele>200.57</ele>
        <time>2016-06-24T13:48:16Z</time>
      </trkpt>
      <trkpt lat="44.46224" lon="1.04226">
        <ele>199.13</ele>
        <time>2016-06-24T13:48:27Z</time>
      </trkpt>
      <trkpt lat="44.46209" lon="1.04226">
        <ele>196.73</ele>
        <time>2016-06-24T13:48:40Z</time>
      </trkpt>
      <trkpt lat="44.46208" lon="1.04227">
        <ele>196.73</ele>
        <time>2016-06-24T13:48:41Z</time>
      </trkpt>
      <trkpt lat="44.4619" lon="1.04231">
        <ele>194.8</ele>
        <time>2016-06-24T13:48:55Z</time>
      </trkpt>
      <trkpt lat="44.46179" lon="1.04232">
        <ele>194.32</ele>
        <time>2016-06-24T13:49:02Z</time>
      </trkpt>
      <trkpt lat="44.46163" lon="1.04239">
        <ele>192.4</ele>
        <time>2016-06-24T13:49:15Z</time>
      </trkpt>
      <trkpt lat="44.46151" lon="1.04247">
        <ele>191.44</ele>
        <time>2016-06-24T13:49:25Z</time>
      </trkpt>
      <trkpt lat="44.46136" lon="1.04256">
        <ele>189.52</ele>
        <time>2016-06-24T13:49:38Z</time>
      </trkpt>
      <trkpt lat="44.46127" lon="1.04259">
        <ele>188.08</ele>
        <time>2016-06-24T13:49:47Z</time>
      </trkpt>
      <trkpt lat="44.4612" lon="1.0426">
        <ele>187.59</ele>
        <time>2016-06-24T13:49:51Z</time>
      </trkpt>
      <trkpt lat="44.46113" lon="1.04261">
        <ele>186.15</ele>
        <time>2016-06-24T13:49:57Z</time>
      </trkpt>
      <trkpt lat="44.46097" lon="1.04258">
        <ele>184.71</ele>
        <time>2016-06-24T13:50:09Z</time>
      </trkpt>
      <trkpt lat="44.46087" lon="1.04253">
        <ele>182.79</ele>
        <time>2016-06-24T13:50:18Z</time>
      </trkpt>
      <trkpt lat="44.46078" lon="1.04253">
        <ele>182.31</ele>
        <time>2016-06-24T13:50:25Z</time>
      </trkpt>
      <trkpt lat="44.46062" lon="1.04255">
        <ele>181.35</ele>
        <time>2016-06-24T13:50:36Z</time>
      </trkpt>
      <trkpt lat="44.4605" lon="1.04261">
        <ele>180.38</ele>
        <time>2016-06-24T13:50:48Z</time>
      </trkpt>
      <trkpt lat="44.46043" lon="1.04265">
        <ele>180.38</ele>
        <time>2016-06-24T13:50:56Z</time>
      </trkpt>
      <trkpt lat="44.46036" lon="1.04264">
        <ele>179.42</ele>
        <time>2016-06-24T13:51:08Z</time>
      </trkpt>
      <trkpt lat="44.46035" lon="1.04263">
        <ele>179.42</ele>
        <time>2016-06-24T13:51:25Z</time>
      </trkpt>
      <trkpt lat="44.4603" lon="1.04265">
        <ele>179.42</ele>
        <time>2016-06-24T13:51:31Z</time>
      </trkpt>
      <trkpt lat="44.46026" lon="1.04268">
        <ele>179.42</ele>
        <time>2016-06-24T13:51:36Z</time>
      </trkpt>
      <trkpt lat="44.46025" lon="1.04273">
        <ele>179.42</ele>
        <time>2016-06-24T13:51:39Z</time>
      </trkpt>
      <trkpt lat="44.4602" lon="1.04281">
        <ele>179.42</ele>
        <time>2016-06-24T13:51:46Z</time>
      </trkpt>
      <trkpt lat="44.46005" lon="1.0429">
        <ele>180.38</ele>
        <time>2016-06-24T13:52:00Z</time>
      </trkpt>
      <trkpt lat="44.45989" lon="1.04302">
        <ele>181.35</ele>
        <time>2016-06-24T13:52:13Z</time>
      </trkpt>
      <trkpt lat="44.45985" lon="1.04306">
        <ele>181.35</ele>
        <time>2016-06-24T13:52:17Z</time>
      </trkpt>
      <trkpt lat="44.45971" lon="1.04317">
        <ele>181.83</ele>
        <time>2016-06-24T13:52:29Z</time>
      </trkpt>
      <trkpt lat="44.45955" lon="1.04327">
        <ele>182.31</ele>
        <time>2016-06-24T13:52:43Z</time>
      </trkpt>
      <trkpt lat="44.45949" lon="1.04334">
        <ele>182.31</ele>
        <time>2016-06-24T13:52:49Z</time>
      </trkpt>
      <trkpt lat="44.45938" lon="1.04345">
        <ele>182.31</ele>
        <time>2016-06-24T13:53:01Z</time>
      </trkpt>
      <trkpt lat="44.45927" lon="1.04361">
        <ele>182.79</ele>
        <time>2016-06-24T13:53:13Z</time>
      </trkpt>
      <trkpt lat="44.45916" lon="1.04375">
        <ele>183.27</ele>
        <time>2016-06-24T13:53:24Z</time>
      </trkpt>
      <trkpt lat="44.45909" lon="1.04388">
        <ele>183.75</ele>
        <time>2016-06-24T13:53:32Z</time>
      </trkpt>
      <trkpt lat="44.45904" lon="1.04399">
        <ele>184.23</ele>
        <time>2016-06-24T13:53:39Z</time>
      </trkpt>
      <trkpt lat="44.45903" lon="1.04402">
        <ele>184.23</ele>
        <time>2016-06-24T13:53:41Z</time>
      </trkpt>
      <trkpt lat="44.45897" lon="1.04412">
        <ele>185.19</ele>
        <time>2016-06-24T13:53:49Z</time>
      </trkpt>
      <trkpt lat="44.45892" lon="1.04417">
        <ele>185.19</ele>
        <time>2016-06-24T13:53:54Z</time>
      </trkpt>
      <trkpt lat="44.4588" lon="1.0443">
        <ele>185.19</ele>
        <time>2016-06-24T13:54:05Z</time>
      </trkpt>
      <trkpt lat="44.45866" lon="1.04445">
        <ele>185.19</ele>
        <time>2016-06-24T13:54:19Z</time>
      </trkpt>
      <trkpt lat="44.45864" lon="1.04446">
        <ele>185.19</ele>
        <time>2016-06-24T13:54:20Z</time>
      </trkpt>
      <trkpt lat="44.4585" lon="1.04463">
        <ele>183.27</ele>
        <time>2016-06-24T13:54:34Z</time>
      </trkpt>
      <trkpt lat="44.45846" lon="1.04466">
        <ele>182.79</ele>
        <time>2016-06-24T13:54:37Z</time>
      </trkpt>
      <trkpt lat="44.45833" lon="1.04476">
        <ele>182.31</ele>
        <time>2016-06-24T13:54:49Z</time>
      </trkpt>
      <trkpt lat="44.45815" lon="1.0448">
        <ele>180.87</ele>
        <time>2016-06-24T13:55:01Z</time>
      </trkpt>
      <trkpt lat="44.45797" lon="1.04478">
        <ele>180.87</ele>
        <time>2016-06-24T13:55:14Z</time>
      </trkpt>
      <trkpt lat="44.45778" lon="1.04475">
        <ele>180.87</ele>
        <time>2016-06-24T13:55:27Z</time>
      </trkpt>
      <trkpt lat="44.45764" lon="1.04474">
        <ele>180.87</ele>
        <time>2016-06-24T13:55:38Z</time>
      </trkpt>
      <trkpt lat="44.45749" lon="1.04474">
        <ele>182.79</ele>
        <time>2016-06-24T13:55:49Z</time>
      </trkpt>
      <trkpt lat="44.45742" lon="1.04471">
        <ele>183.27</ele>
        <time>2016-06-24T13:55:55Z</time>
      </trkpt>
      <trkpt lat="44.4574" lon="1.04475">
        <ele>183.75</ele>
        <time>2016-06-24T13:55:58Z</time>
      </trkpt>
      <trkpt lat="44.45741" lon="1.04497">
        <ele>184.71</ele>
        <time>2016-06-24T13:56:10Z</time>
      </trkpt>
      <trkpt lat="44.45742" lon="1.04505">
        <ele>184.71</ele>
        <time>2016-06-24T13:56:14Z</time>
      </trkpt>
      <trkpt lat="44.45745" lon="1.0453">
        <ele>184.71</ele>
        <time>2016-06-24T13:56:28Z</time>
      </trkpt>
      <trkpt lat="44.45745" lon="1.04554">
        <ele>184.71</ele>
        <time>2016-06-24T13:56:40Z</time>
      </trkpt>
      <trkpt lat="44.45744" lon="1.0457">
        <ele>183.27</ele>
        <time>2016-06-24T13:56:48Z</time>
      </trkpt>
      <trkpt lat="44.45744" lon="1.04594">
        <ele>183.27</ele>
        <time>2016-06-24T13:57:01Z</time>
      </trkpt>
      <trkpt lat="44.4574" lon="1.04626">
        <ele>183.27</ele>
        <time>2016-06-24T13:57:17Z</time>
      </trkpt>
      <trkpt lat="44.45737" lon="1.04647">
        <ele>183.27</ele>
        <time>2016-06-24T13:57:28Z</time>
      </trkpt>
      <trkpt lat="44.45736" lon="1.04654">
        <ele>183.27</ele>
        <time>2016-06-24T13:57:32Z</time>
      </trkpt>
      <trkpt lat="44.45729" lon="1.04681">
        <ele>184.23</ele>
        <time>2016-06-24T13:57:47Z</time>
      </trkpt>
      <trkpt lat="44.45724" lon="1.04707">
        <ele>183.27</ele>
        <time>2016-06-24T13:58:01Z</time>
      </trkpt>
      <trkpt lat="44.45723" lon="1.04723">
        <ele>183.27</ele>
        <time>2016-06-24T13:58:09Z</time>
      </trkpt>
      <trkpt lat="44.45724" lon="1.04755">
        <ele>181.83</ele>
        <time>2016-06-24T13:58:25Z</time>
      </trkpt>
      <trkpt lat="44.45722" lon="1.04768">
        <ele>181.83</ele>
        <time>2016-06-24T13:58:33Z</time>
      </trkpt>
      <trkpt lat="44.45723" lon="1.04774">
        <ele>181.83</ele>
        <time>2016-06-24T13:58:37Z</time>
      </trkpt>
      <trkpt lat="44.45724" lon="1.04788">
        <ele>181.83</ele>
        <time>2016-06-24T13:58:46Z</time>
      </trkpt>
      <trkpt lat="44.45724" lon="1.04811">
        <ele>183.27</ele>
        <time>2016-06-24T13:58:58Z</time>
      </trkpt>
      <trkpt lat="44.45724" lon="1.04814">
        <ele>183.27</ele>
        <time>2016-06-24T13:59:00Z</time>
      </trkpt>
      <trkpt lat="44.45715" lon="1.04831">
        <ele>183.75</ele>
        <time>2016-06-24T13:59:11Z</time>
      </trkpt>
      <trkpt lat="44.45712" lon="1.04839">
        <ele>183.75</ele>
        <time>2016-06-24T13:59:17Z</time>
      </trkpt>
      <trkpt lat="44.45706" lon="1.04851">
        <ele>183.75</ele>
        <time>2016-06-24T13:59:25Z</time>
      </trkpt>
      <trkpt lat="44.45703" lon="1.04858">
        <ele>184.23</ele>
        <time>2016-06-24T13:59:29Z</time>
      </trkpt>
      <trkpt lat="44.45693" lon="1.04879">
        <ele>184.23</ele>
        <time>2016-06-24T13:59:41Z</time>
      </trkpt>
      <trkpt lat="44.45686" lon="1.04898">
        <ele>184.23</ele>
        <time>2016-06-24T13:59:52Z</time>
      </trkpt>
      <trkpt lat="44.45687" lon="1.0492">
        <ele>183.75</ele>
        <time>2016-06-24T14:00:05Z</time>
      </trkpt>
      <trkpt lat="44.45691" lon="1.0495">
        <ele>184.23</ele>
        <time>2016-06-24T14:00:18Z</time>
      </trkpt>
      <trkpt lat="44.45692" lon="1.04971">
        <ele>184.23</ele>
        <time>2016-06-24T14:00:29Z</time>
      </trkpt>
      <trkpt lat="44.45689" lon="1.04989">
        <ele>184.23</ele>
        <time>2016-06-24T14:00:38Z</time>
      </trkpt>
      <trkpt lat="44.45702" lon="1.04998">
        <ele>184.71</ele>
        <time>2016-06-24T14:00:51Z</time>
      </trkpt>
      <trkpt lat="44.45709" lon="1.05001">
        <ele>185.19</ele>
        <time>2016-06-24T14:00:58Z</time>
      </trkpt>
      <trkpt lat="44.45717" lon="1.05006">
        <ele>186.63</ele>
        <time>2016-06-24T14:01:05Z</time>
      </trkpt>
      <trkpt lat="44.45723" lon="1.05009">
        <ele>187.11</ele>
        <time>2016-06-24T14:01:10Z</time>
      </trkpt>
      <trkpt lat="44.45727" lon="1.05012">
        <ele>187.59</ele>
        <time>2016-06-24T14:01:14Z</time>
      </trkpt>
      <trkpt lat="44.45735" lon="1.05015">
        <ele>188.08</ele>
        <time>2016-06-24T14:01:20Z</time>
      </trkpt>
      <trkpt lat="44.45742" lon="1.05019">
        <ele>188.56</ele>
        <time>2016-06-24T14:01:27Z</time>
      </trkpt>
      <trkpt lat="44.45745" lon="1.0502">
        <ele>189.04</ele>
        <time>2016-06-24T14:01:29Z</time>
      </trkpt>
      <trkpt lat="44.45749" lon="1.05023">
        <ele>189.04</ele>
        <time>2016-06-24T14:01:33Z</time>
      </trkpt>
      <trkpt lat="44.45762" lon="1.05031">
        <ele>190.48</ele>
        <time>2016-06-24T14:01:46Z</time>
      </trkpt>
      <trkpt lat="44.4577" lon="1.05036">
        <ele>191.44</ele>
        <time>2016-06-24T14:01:53Z</time>
      </trkpt>
      <trkpt lat="44.45777" lon="1.05041">
        <ele>192.4</ele>
        <time>2016-06-24T14:02:00Z</time>
      </trkpt>
      <trkpt lat="44.45791" lon="1.05042">
        <ele>193.84</ele>
        <time>2016-06-24T14:02:13Z</time>
      </trkpt>
      <trkpt lat="44.45806" lon="1.05038">
        <ele>196.73</ele>
        <time>2016-06-24T14:02:28Z</time>
      </trkpt>
      <trkpt lat="44.45817" lon="1.0504">
        <ele>200.09</ele>
        <time>2016-06-24T14:02:39Z</time>
      </trkpt>
      <trkpt lat="44.45823" lon="1.05042">
        <ele>203.46</ele>
        <time>2016-06-24T14:02:45Z</time>
      </trkpt>
      <trkpt lat="44.45825" lon="1.05044">
        <ele>203.94</ele>
        <time>2016-06-24T14:02:47Z</time>
      </trkpt>
      <trkpt lat="44.45841" lon="1.05044">
        <ele>204.9</ele>
        <time>2016-06-24T14:03:04Z</time>
      </trkpt>
      <trkpt lat="44.45852" lon="1.05052">
        <ele>206.82</ele>
        <time>2016-06-24T14:03:18Z</time>
      </trkpt>
      <trkpt lat="44.45858" lon="1.05058">
        <ele>207.3</ele>
        <time>2016-06-24T14:03:29Z</time>
      </trkpt>
      <trkpt lat="44.45859" lon="1.05061">
        <ele>208.26</ele>
        <time>2016-06-24T14:03:31Z</time>
      </trkpt>
      <trkpt lat="44.4587" lon="1.0508">
        <ele>208.74</ele>
        <time>2016-06-24T14:03:46Z</time>
      </trkpt>
      <trkpt lat="44.45876" lon="1.0509">
        <ele>209.7</ele>
        <time>2016-06-24T14:03:53Z</time>
      </trkpt>
      <trkpt lat="44.45879" lon="1.05094">
        <ele>210.19</ele>
        <time>2016-06-24T14:03:56Z</time>
      </trkpt>
      <trkpt lat="44.45881" lon="1.05097">
        <ele>210.19</ele>
        <time>2016-06-24T14:03:59Z</time>
      </trkpt>
      <trkpt lat="44.45886" lon="1.05106">
        <ele>211.15</ele>
        <time>2016-06-24T14:04:07Z</time>
      </trkpt>
      <trkpt lat="44.45889" lon="1.05109">
        <ele>211.63</ele>
        <time>2016-06-24T14:04:11Z</time>
      </trkpt>
      <trkpt lat="44.45898" lon="1.05126">
        <ele>213.55</ele>
        <time>2016-06-24T14:04:25Z</time>
      </trkpt>
      <trkpt lat="44.45903" lon="1.05133">
        <ele>214.51</ele>
        <time>2016-06-24T14:04:31Z</time>
      </trkpt>
      <trkpt lat="44.45907" lon="1.05133">
        <ele>214.99</ele>
        <time>2016-06-24T14:04:34Z</time>
      </trkpt>
      <trkpt lat="44.45915" lon="1.0513">
        <ele>215.95</ele>
        <time>2016-06-24T14:04:41Z</time>
      </trkpt>
      <trkpt lat="44.45921" lon="1.05129">
        <ele>216.43</ele>
        <time>2016-06-24T14:04:46Z</time>
      </trkpt>
      <trkpt lat="44.45926" lon="1.0513">
        <ele>216.43</ele>
        <time>2016-06-24T14:04:50Z</time>
      </trkpt>
      <trkpt lat="44.45932" lon="1.05132">
        <ele>216.91</ele>
        <time>2016-06-24T14:04:54Z</time>
      </trkpt>
      <trkpt lat="44.45938" lon="1.05137">
        <ele>216.91</ele>
        <time>2016-06-24T14:04:59Z</time>
      </trkpt>
      <trkpt lat="44.45942" lon="1.05142">
        <ele>216.91</ele>
        <time>2016-06-24T14:05:03Z</time>
      </trkpt>
      <trkpt lat="44.45958" lon="1.05164">
        <ele>217.4</ele>
        <time>2016-06-24T14:05:19Z</time>
      </trkpt>
      <trkpt lat="44.45971" lon="1.05182">
        <ele>217.4</ele>
        <time>2016-06-24T14:05:33Z</time>
      </trkpt>
      <trkpt lat="44.45986" lon="1.05201">
        <ele>217.4</ele>
        <time>2016-06-24T14:05:49Z</time>
      </trkpt>
      <trkpt lat="44.4599" lon="1.05207">
        <ele>217.4</ele>
        <time>2016-06-24T14:05:54Z</time>
      </trkpt>
      <trkpt lat="44.45993" lon="1.05217">
        <ele>216.91</ele>
        <time>2016-06-24T14:06:00Z</time>
      </trkpt>
      <trkpt lat="44.45993" lon="1.05221">
        <ele>216.91</ele>
        <time>2016-06-24T14:06:02Z</time>
      </trkpt>
      <trkpt lat="44.45991" lon="1.05223">
        <ele>216.91</ele>
        <time>2016-06-24T14:06:05Z</time>
      </trkpt>
      <trkpt lat="44.45983" lon="1.05226">
        <ele>216.91</ele>
        <time>2016-06-24T14:06:12Z</time>
      </trkpt>
      <trkpt lat="44.45975" lon="1.05227">
        <ele>216.91</ele>
        <time>2016-06-24T14:06:21Z</time>
      </trkpt>
      <trkpt lat="44.45972" lon="1.05227">
        <ele>216.91</ele>
        <time>2016-06-24T14:06:24Z</time>
      </trkpt>
      <trkpt lat="44.45968" lon="1.05228">
        <ele>216.91</ele>
        <time>2016-06-24T14:06:27Z</time>
      </trkpt>
      <trkpt lat="44.45964" lon="1.05228">
        <ele>217.4</ele>
        <time>2016-06-24T14:06:31Z</time>
      </trkpt>
      <trkpt lat="44.45946" lon="1.05228">
        <ele>218.36</ele>
        <time>2016-06-24T14:06:46Z</time>
      </trkpt>
      <trkpt lat="44.45942" lon="1.0523">
        <ele>218.36</ele>
        <time>2016-06-24T14:06:49Z</time>
      </trkpt>
      <trkpt lat="44.45928" lon="1.0525">
        <ele>218.84</ele>
        <time>2016-06-24T14:07:03Z</time>
      </trkpt>
      <trkpt lat="44.45915" lon="1.05272">
        <ele>218.84</ele>
        <time>2016-06-24T14:07:16Z</time>
      </trkpt>
      <trkpt lat="44.45914" lon="1.05274">
        <ele>218.84</ele>
        <time>2016-06-24T14:07:18Z</time>
      </trkpt>
      <trkpt lat="44.45912" lon="1.05277">
        <ele>218.84</ele>
        <time>2016-06-24T14:07:20Z</time>
      </trkpt>
      <trkpt lat="44.45906" lon="1.05288">
        <ele>218.84</ele>
        <time>2016-06-24T14:07:27Z</time>
      </trkpt>
      <trkpt lat="44.45904" lon="1.05293">
        <ele>218.84</ele>
        <time>2016-06-24T14:07:30Z</time>
      </trkpt>
      <trkpt lat="44.45899" lon="1.05303">
        <ele>218.84</ele>
        <time>2016-06-24T14:07:36Z</time>
      </trkpt>
      <trkpt lat="44.45888" lon="1.05317">
        <ele>218.84</ele>
        <time>2016-06-24T14:07:47Z</time>
      </trkpt>
      <trkpt lat="44.45885" lon="1.05321">
        <ele>218.84</ele>
        <time>2016-06-24T14:07:50Z</time>
      </trkpt>
      <trkpt lat="44.45883" lon="1.05324">
        <ele>218.84</ele>
        <time>2016-06-24T14:07:52Z</time>
      </trkpt>
      <trkpt lat="44.45872" lon="1.05337">
        <ele>218.36</ele>
        <time>2016-06-24T14:08:04Z</time>
      </trkpt>
      <trkpt lat="44.4586" lon="1.0535">
        <ele>219.8</ele>
        <time>2016-06-24T14:08:15Z</time>
      </trkpt>
      <trkpt lat="44.45849" lon="1.05363">
        <ele>219.8</ele>
        <time>2016-06-24T14:08:26Z</time>
      </trkpt>
      <trkpt lat="44.45836" lon="1.0538">
        <ele>220.76</ele>
        <time>2016-06-24T14:08:39Z</time>
      </trkpt>
      <trkpt lat="44.45819" lon="1.05396">
        <ele>221.24</ele>
        <time>2016-06-24T14:08:54Z</time>
      </trkpt>
      <trkpt lat="44.45805" lon="1.0541">
        <ele>221.24</ele>
        <time>2016-06-24T14:09:08Z</time>
      </trkpt>
      <trkpt lat="44.458" lon="1.05416">
        <ele>221.24</ele>
        <time>2016-06-24T14:09:14Z</time>
      </trkpt>
      <trkpt lat="44.45787" lon="1.05431">
        <ele>221.24</ele>
        <time>2016-06-24T14:09:26Z</time>
      </trkpt>
      <trkpt lat="44.45769" lon="1.05431">
        <ele>220.28</ele>
        <time>2016-06-24T14:09:38Z</time>
      </trkpt>
      <trkpt lat="44.45765" lon="1.05431">
        <ele>219.8</ele>
        <time>2016-06-24T14:09:41Z</time>
      </trkpt>
      <trkpt lat="44.45755" lon="1.0543">
        <ele>219.32</ele>
        <time>2016-06-24T14:09:49Z</time>
      </trkpt>
      <trkpt lat="44.45749" lon="1.0543">
        <ele>218.84</ele>
        <time>2016-06-24T14:09:54Z</time>
      </trkpt>
      <trkpt lat="44.45732" lon="1.05425">
        <ele>217.4</ele>
        <time>2016-06-24T14:10:07Z</time>
      </trkpt>
      <trkpt lat="44.45715" lon="1.05419">
        <ele>215.95</ele>
        <time>2016-06-24T14:10:21Z</time>
      </trkpt>
      <trkpt lat="44.45709" lon="1.05418">
        <ele>215.95</ele>
        <time>2016-06-24T14:10:26Z</time>
      </trkpt>
      <trkpt lat="44.45703" lon="1.05415">
        <ele>215.47</ele>
        <time>2016-06-24T14:10:31Z</time>
      </trkpt>
      <trkpt lat="44.45688" lon="1.05415">
        <ele>214.03</ele>
        <time>2016-06-24T14:10:42Z</time>
      </trkpt>
      <trkpt lat="44.45673" lon="1.05415">
        <ele>213.55</ele>
        <time>2016-06-24T14:10:54Z</time>
      </trkpt>
      <trkpt lat="44.45665" lon="1.05417">
        <ele>213.07</ele>
        <time>2016-06-24T14:10:59Z</time>
      </trkpt>
      <trkpt lat="44.45648" lon="1.05422">
        <ele>212.59</ele>
        <time>2016-06-24T14:11:12Z</time>
      </trkpt>
      <trkpt lat="44.45643" lon="1.05424">
        <ele>212.59</ele>
        <time>2016-06-24T14:11:16Z</time>
      </trkpt>
      <trkpt lat="44.45633" lon="1.05431">
        <ele>212.59</ele>
        <time>2016-06-24T14:11:28Z</time>
      </trkpt>
      <trkpt lat="44.45626" lon="1.05435">
        <ele>212.59</ele>
        <time>2016-06-24T14:11:32Z</time>
      </trkpt>
      <trkpt lat="44.45609" lon="1.05445">
        <ele>213.55</ele>
        <time>2016-06-24T14:11:44Z</time>
      </trkpt>
      <trkpt lat="44.45607" lon="1.05447">
        <ele>213.55</ele>
        <time>2016-06-24T14:11:46Z</time>
      </trkpt>
      <trkpt lat="44.45596" lon="1.05461">
        <ele>214.03</ele>
        <time>2016-06-24T14:11:59Z</time>
      </trkpt>
      <trkpt lat="44.45586" lon="1.05474">
        <ele>214.51</ele>
        <time>2016-06-24T14:12:09Z</time>
      </trkpt>
      <trkpt lat="44.45581" lon="1.05479">
        <ele>214.99</ele>
        <time>2016-06-24T14:12:13Z</time>
      </trkpt>
      <trkpt lat="44.45567" lon="1.05499">
        <ele>215.95</ele>
        <time>2016-06-24T14:12:27Z</time>
      </trkpt>
      <trkpt lat="44.45555" lon="1.0552">
        <ele>217.4</ele>
        <time>2016-06-24T14:12:40Z</time>
      </trkpt>
      <trkpt lat="44.45547" lon="1.0553">
        <ele>217.88</ele>
        <time>2016-06-24T14:12:48Z</time>
      </trkpt>
      <trkpt lat="44.45537" lon="1.0554">
        <ele>218.36</ele>
        <time>2016-06-24T14:12:58Z</time>
      </trkpt>
      <trkpt lat="44.45526" lon="1.0555">
        <ele>218.84</ele>
        <time>2016-06-24T14:13:09Z</time>
      </trkpt>
      <trkpt lat="44.45509" lon="1.05569">
        <ele>219.8</ele>
        <time>2016-06-24T14:13:23Z</time>
      </trkpt>
      <trkpt lat="44.45496" lon="1.05585">
        <ele>220.76</ele>
        <time>2016-06-24T14:13:35Z</time>
      </trkpt>
      <trkpt lat="44.45495" lon="1.05586">
        <ele>220.76</ele>
        <time>2016-06-24T14:13:36Z</time>
      </trkpt>
      <trkpt lat="44.4549" lon="1.05592">
        <ele>221.24</ele>
        <time>2016-06-24T14:13:47Z</time>
      </trkpt>
      <trkpt lat="44.45484" lon="1.05599">
        <ele>221.24</ele>
        <time>2016-06-24T14:13:55Z</time>
      </trkpt>
      <trkpt lat="44.45474" lon="1.05608">
        <ele>221.72</ele>
        <time>2016-06-24T14:14:04Z</time>
      </trkpt>
      <trkpt lat="44.45465" lon="1.05617">
        <ele>222.2</ele>
        <time>2016-06-24T14:14:13Z</time>
      </trkpt>
      <trkpt lat="44.45453" lon="1.05626">
        <ele>222.68</ele>
        <time>2016-06-24T14:14:23Z</time>
      </trkpt>
      <trkpt lat="44.45437" lon="1.05641">
        <ele>223.64</ele>
        <time>2016-06-24T14:14:37Z</time>
      </trkpt>
      <trkpt lat="44.45435" lon="1.05643">
        <ele>223.64</ele>
        <time>2016-06-24T14:14:38Z</time>
      </trkpt>
      <trkpt lat="44.45427" lon="1.05657">
        <ele>223.64</ele>
        <time>2016-06-24T14:14:48Z</time>
      </trkpt>
      <trkpt lat="44.45416" lon="1.0568">
        <ele>223.64</ele>
        <time>2016-06-24T14:15:03Z</time>
      </trkpt>
      <trkpt lat="44.45415" lon="1.05682">
        <ele>223.64</ele>
        <time>2016-06-24T14:15:04Z</time>
      </trkpt>
      <trkpt lat="44.4541" lon="1.05689">
        <ele>222.68</ele>
        <time>2016-06-24T14:15:10Z</time>
      </trkpt>
      <trkpt lat="44.45407" lon="1.05699">
        <ele>222.2</ele>
        <time>2016-06-24T14:15:16Z</time>
      </trkpt>
      <trkpt lat="44.454" lon="1.05717">
        <ele>220.76</ele>
        <time>2016-06-24T14:15:27Z</time>
      </trkpt>
      <trkpt lat="44.454" lon="1.05724">
        <ele>220.28</ele>
        <time>2016-06-24T14:15:31Z</time>
      </trkpt>
      <trkpt lat="44.45399" lon="1.05736">
        <ele>218.36</ele>
        <time>2016-06-24T14:15:38Z</time>
      </trkpt>
      <trkpt lat="44.45398" lon="1.05742">
        <ele>217.88</ele>
        <time>2016-06-24T14:15:41Z</time>
      </trkpt>
      <trkpt lat="44.45398" lon="1.05753">
        <ele>217.4</ele>
        <time>2016-06-24T14:15:47Z</time>
      </trkpt>
      <trkpt lat="44.45396" lon="1.05782">
        <ele>214.99</ele>
        <time>2016-06-24T14:16:03Z</time>
      </trkpt>
      <trkpt lat="44.45393" lon="1.05813">
        <ele>212.11</ele>
        <time>2016-06-24T14:16:21Z</time>
      </trkpt>
      <trkpt lat="44.45389" lon="1.05832">
        <ele>211.63</ele>
        <time>2016-06-24T14:16:33Z</time>
      </trkpt>
      <trkpt lat="44.45375" lon="1.05849">
        <ele>210.67</ele>
        <time>2016-06-24T14:16:47Z</time>
      </trkpt>
      <trkpt lat="44.45372" lon="1.05855">
        <ele>210.67</ele>
        <time>2016-06-24T14:16:51Z</time>
      </trkpt>
      <trkpt lat="44.45369" lon="1.05863">
        <ele>210.67</ele>
        <time>2016-06-24T14:16:57Z</time>
      </trkpt>
      <trkpt lat="44.45366" lon="1.05873">
        <ele>210.67</ele>
        <time>2016-06-24T14:17:04Z</time>
      </trkpt>
      <trkpt lat="44.45355" lon="1.05893">
        <ele>210.67</ele>
        <time>2016-06-24T14:17:17Z</time>
      </trkpt>
      <trkpt lat="44.45351" lon="1.05902">
        <ele>210.67</ele>
        <time>2016-06-24T14:17:24Z</time>
      </trkpt>
      <trkpt lat="44.45339" lon="1.05919">
        <ele>210.67</ele>
        <time>2016-06-24T14:17:37Z</time>
      </trkpt>
      <trkpt lat="44.45328" lon="1.05936">
        <ele>212.11</ele>
        <time>2016-06-24T14:17:50Z</time>
      </trkpt>
      <trkpt lat="44.45322" lon="1.05943">
        <ele>212.11</ele>
        <time>2016-06-24T14:17:55Z</time>
      </trkpt>
      <trkpt lat="44.45313" lon="1.05963">
        <ele>211.63</ele>
        <time>2016-06-24T14:18:06Z</time>
      </trkpt>
      <trkpt lat="44.45312" lon="1.05969">
        <ele>211.63</ele>
        <time>2016-06-24T14:18:09Z</time>
      </trkpt>
      <trkpt lat="44.45311" lon="1.05974">
        <ele>211.63</ele>
        <time>2016-06-24T14:18:12Z</time>
      </trkpt>
      <trkpt lat="44.45309" lon="1.05982">
        <ele>211.63</ele>
        <time>2016-06-24T14:18:16Z</time>
      </trkpt>
      <trkpt lat="44.45309" lon="1.06001">
        <ele>211.63</ele>
        <time>2016-06-24T14:18:31Z</time>
      </trkpt>
      <trkpt lat="44.45309" lon="1.06006">
        <ele>211.63</ele>
        <time>2016-06-24T14:18:34Z</time>
      </trkpt>
      <trkpt lat="44.45309" lon="1.06034">
        <ele>211.63</ele>
        <time>2016-06-24T14:18:49Z</time>
      </trkpt>
      <trkpt lat="44.4531" lon="1.06061">
        <ele>211.63</ele>
        <time>2016-06-24T14:19:03Z</time>
      </trkpt>
      <trkpt lat="44.45315" lon="1.06087">
        <ele>210.67</ele>
        <time>2016-06-24T14:19:14Z</time>
      </trkpt>
      <trkpt lat="44.45322" lon="1.06111">
        <ele>208.74</ele>
        <time>2016-06-24T14:19:28Z</time>
      </trkpt>
      <trkpt lat="44.45325" lon="1.06133">
        <ele>206.34</ele>
        <time>2016-06-24T14:19:40Z</time>
      </trkpt>
      <trkpt lat="44.45325" lon="1.06141">
        <ele>205.38</ele>
        <time>2016-06-24T14:19:44Z</time>
      </trkpt>
      <trkpt lat="44.45325" lon="1.06156">
        <ele>203.46</ele>
        <time>2016-06-24T14:19:52Z</time>
      </trkpt>
      <trkpt lat="44.45323" lon="1.06169">
        <ele>202.49</ele>
        <time>2016-06-24T14:19:59Z</time>
      </trkpt>
      <trkpt lat="44.4532" lon="1.06177">
        <ele>201.53</ele>
        <time>2016-06-24T14:20:03Z</time>
      </trkpt>
      <trkpt lat="44.45303" lon="1.06183">
        <ele>200.09</ele>
        <time>2016-06-24T14:20:18Z</time>
      </trkpt>
      <trkpt lat="44.45285" lon="1.06188">
        <ele>199.61</ele>
        <time>2016-06-24T14:20:31Z</time>
      </trkpt>
      <trkpt lat="44.45284" lon="1.06187">
        <ele>199.61</ele>
        <time>2016-06-24T14:20:32Z</time>
      </trkpt>
      <trkpt lat="44.45268" lon="1.06197">
        <ele>200.57</ele>
        <time>2016-06-24T14:20:46Z</time>
      </trkpt>
      <trkpt lat="44.45256" lon="1.06205">
        <ele>201.53</ele>
        <time>2016-06-24T14:20:57Z</time>
      </trkpt>
      <trkpt lat="44.45239" lon="1.06214">
        <ele>202.49</ele>
        <time>2016-06-24T14:21:10Z</time>
      </trkpt>
      <trkpt lat="44.45234" lon="1.06216">
        <ele>202.49</ele>
        <time>2016-06-24T14:21:13Z</time>
      </trkpt>
      <trkpt lat="44.45223" lon="1.06223">
        <ele>202.98</ele>
        <time>2016-06-24T14:21:23Z</time>
      </trkpt>
      <trkpt lat="44.45214" lon="1.0623">
        <ele>203.46</ele>
        <time>2016-06-24T14:21:32Z</time>
      </trkpt>
      <trkpt lat="44.45203" lon="1.06242">
        <ele>203.94</ele>
        <time>2016-06-24T14:21:44Z</time>
      </trkpt>
      <trkpt lat="44.45196" lon="1.06247">
        <ele>205.38</ele>
        <time>2016-06-24T14:21:52Z</time>
      </trkpt>
      <trkpt lat="44.45186" lon="1.0626">
        <ele>206.34</ele>
        <time>2016-06-24T14:22:05Z</time>
      </trkpt>
      <trkpt lat="44.45174" lon="1.06274">
        <ele>207.3</ele>
        <time>2016-06-24T14:22:17Z</time>
      </trkpt>
      <trkpt lat="44.4516" lon="1.06294">
        <ele>208.26</ele>
        <time>2016-06-24T14:22:31Z</time>
      </trkpt>
      <trkpt lat="44.4515" lon="1.0631">
        <ele>208.74</ele>
        <time>2016-06-24T14:22:44Z</time>
      </trkpt>
      <trkpt lat="44.4514" lon="1.06324">
        <ele>209.7</ele>
        <time>2016-06-24T14:22:56Z</time>
      </trkpt>
      <trkpt lat="44.45138" lon="1.06326">
        <ele>209.7</ele>
        <time>2016-06-24T14:23:02Z</time>
      </trkpt>
      <trkpt lat="44.45136" lon="1.06328">
        <ele>209.7</ele>
        <time>2016-06-24T14:23:04Z</time>
      </trkpt>
      <trkpt lat="44.45123" lon="1.06348">
        <ele>209.7</ele>
        <time>2016-06-24T14:23:18Z</time>
      </trkpt>
      <trkpt lat="44.45112" lon="1.06363">
        <ele>209.7</ele>
        <time>2016-06-24T14:23:28Z</time>
      </trkpt>
      <trkpt lat="44.45106" lon="1.06372">
        <ele>210.19</ele>
        <time>2016-06-24T14:23:34Z</time>
      </trkpt>
      <trkpt lat="44.45101" lon="1.06381">
        <ele>210.19</ele>
        <time>2016-06-24T14:23:40Z</time>
      </trkpt>
      <trkpt lat="44.45094" lon="1.064">
        <ele>211.15</ele>
        <time>2016-06-24T14:23:54Z</time>
      </trkpt>
      <trkpt lat="44.45084" lon="1.06416">
        <ele>211.63</ele>
        <time>2016-06-24T14:24:05Z</time>
      </trkpt>
      <trkpt lat="44.45082" lon="1.06419">
        <ele>211.63</ele>
        <time>2016-06-24T14:24:07Z</time>
      </trkpt>
      <trkpt lat="44.4507" lon="1.06439">
        <ele>212.11</ele>
        <time>2016-06-24T14:24:19Z</time>
      </trkpt>
      <trkpt lat="44.45067" lon="1.06444">
        <ele>212.59</ele>
        <time>2016-06-24T14:24:23Z</time>
      </trkpt>
      <trkpt lat="44.45062" lon="1.06455">
        <ele>212.59</ele>
        <time>2016-06-24T14:24:31Z</time>
      </trkpt>
      <trkpt lat="44.45046" lon="1.06481">
        <ele>213.55</ele>
        <time>2016-06-24T14:24:48Z</time>
      </trkpt>
      <trkpt lat="44.45032" lon="1.06503">
        <ele>214.03</ele>
        <time>2016-06-24T14:25:02Z</time>
      </trkpt>
      <trkpt lat="44.45017" lon="1.06524">
        <ele>214.03</ele>
        <time>2016-06-24T14:25:16Z</time>
      </trkpt>
      <trkpt lat="44.45006" lon="1.06539">
        <ele>214.51</ele>
        <time>2016-06-24T14:25:28Z</time>
      </trkpt>
      <trkpt lat="44.44993" lon="1.06555">
        <ele>214.51</ele>
        <time>2016-06-24T14:25:41Z</time>
      </trkpt>
      <trkpt lat="44.44978" lon="1.06577">
        <ele>214.03</ele>
        <time>2016-06-24T14:25:55Z</time>
      </trkpt>
      <trkpt lat="44.44967" lon="1.06597">
        <ele>214.03</ele>
        <time>2016-06-24T14:26:08Z</time>
      </trkpt>
      <trkpt lat="44.44957" lon="1.06615">
        <ele>214.03</ele>
        <time>2016-06-24T14:26:19Z</time>
      </trkpt>
      <trkpt lat="44.44952" lon="1.06627">
        <ele>214.03</ele>
        <time>2016-06-24T14:26:26Z</time>
      </trkpt>
      <trkpt lat="44.44945" lon="1.06648">
        <ele>214.03</ele>
        <time>2016-06-24T14:26:39Z</time>
      </trkpt>
      <trkpt lat="44.44944" lon="1.06653">
        <ele>214.03</ele>
        <time>2016-06-24T14:26:41Z</time>
      </trkpt>
      <trkpt lat="44.4494" lon="1.0666">
        <ele>214.03</ele>
        <time>2016-06-24T14:26:45Z</time>
      </trkpt>
      <trkpt lat="44.44931" lon="1.06682">
        <ele>213.07</ele>
        <time>2016-06-24T14:26:59Z</time>
      </trkpt>
      <trkpt lat="44.4493" lon="1.06683">
        <ele>213.07</ele>
        <time>2016-06-24T14:27:00Z</time>
      </trkpt>
      <trkpt lat="44.44921" lon="1.06689">
        <ele>213.07</ele>
        <time>2016-06-24T14:27:14Z</time>
      </trkpt>
      <trkpt lat="44.44918" lon="1.06691">
        <ele>213.07</ele>
        <time>2016-06-24T14:27:18Z</time>
      </trkpt>
      <trkpt lat="44.44909" lon="1.06693">
        <ele>213.07</ele>
        <time>2016-06-24T14:27:29Z</time>
      </trkpt>
      <trkpt lat="44.44904" lon="1.06699">
        <ele>214.03</ele>
        <time>2016-06-24T14:27:34Z</time>
      </trkpt>
      <trkpt lat="44.44892" lon="1.06709">
        <ele>215.47</ele>
        <time>2016-06-24T14:27:46Z</time>
      </trkpt>
      <trkpt lat="44.44882" lon="1.06717">
        <ele>216.43</ele>
        <time>2016-06-24T14:27:55Z</time>
      </trkpt>
      <trkpt lat="44.44869" lon="1.06729">
        <ele>220.76</ele>
        <time>2016-06-24T14:28:07Z</time>
      </trkpt>
      <trkpt lat="44.44866" lon="1.0673">
        <ele>222.68</ele>
        <time>2016-06-24T14:28:11Z</time>
      </trkpt>
      <trkpt lat="44.44852" lon="1.06739">
        <ele>223.16</ele>
        <time>2016-06-24T14:28:22Z</time>
      </trkpt>
      <trkpt lat="44.44847" lon="1.06743">
        <ele>223.16</ele>
        <time>2016-06-24T14:28:26Z</time>
      </trkpt>
      <trkpt lat="44.44832" lon="1.06746">
        <ele>222.68</ele>
        <time>2016-06-24T14:28:39Z</time>
      </trkpt>
      <trkpt lat="44.44813" lon="1.06755">
        <ele>222.68</ele>
        <time>2016-06-24T14:28:52Z</time>
      </trkpt>
      <trkpt lat="44.44795" lon="1.06766">
        <ele>223.16</ele>
        <time>2016-06-24T14:29:05Z</time>
      </trkpt>
      <trkpt lat="44.44783" lon="1.06775">
        <ele>223.16</ele>
        <time>2016-06-24T14:29:16Z</time>
      </trkpt>
      <trkpt lat="44.44769" lon="1.06792">
        <ele>223.16</ele>
        <time>2016-06-24T14:29:28Z</time>
      </trkpt>
      <trkpt lat="44.44759" lon="1.0681">
        <ele>223.64</ele>
        <time>2016-06-24T14:29:41Z</time>
      </trkpt>
      <trkpt lat="44.44749" lon="1.06828">
        <ele>224.12</ele>
        <time>2016-06-24T14:29:54Z</time>
      </trkpt>
      <trkpt lat="44.44747" lon="1.06831">
        <ele>224.12</ele>
        <time>2016-06-24T14:29:56Z</time>
      </trkpt>
      <trkpt lat="44.44744" lon="1.06835">
        <ele>224.12</ele>
        <time>2016-06-24T14:30:00Z</time>
      </trkpt>
      <trkpt lat="44.4474" lon="1.0684">
        <ele>224.12</ele>
        <time>2016-06-24T14:30:04Z</time>
      </trkpt>
      <trkpt lat="44.44739" lon="1.06843">
        <ele>224.12</ele>
        <time>2016-06-24T14:30:07Z</time>
      </trkpt>
      <trkpt lat="44.44733" lon="1.06854">
        <ele>224.12</ele>
        <time>2016-06-24T14:30:13Z</time>
      </trkpt>
      <trkpt lat="44.44723" lon="1.06873">
        <ele>224.12</ele>
        <time>2016-06-24T14:30:25Z</time>
      </trkpt>
      <trkpt lat="44.44709" lon="1.06892">
        <ele>224.12</ele>
        <time>2016-06-24T14:30:37Z</time>
      </trkpt>
      <trkpt lat="44.44695" lon="1.06907">
        <ele>224.12</ele>
        <time>2016-06-24T14:30:51Z</time>
      </trkpt>
      <trkpt lat="44.44679" lon="1.06922">
        <ele>223.16</ele>
        <time>2016-06-24T14:31:05Z</time>
      </trkpt>
      <trkpt lat="44.44674" lon="1.06928">
        <ele>222.2</ele>
        <time>2016-06-24T14:31:18Z</time>
      </trkpt>
      <trkpt lat="44.44673" lon="1.06929">
        <ele>222.2</ele>
        <time>2016-06-24T14:31:37Z</time>
      </trkpt>
      <trkpt lat="44.44668" lon="1.06929">
        <ele>222.2</ele>
        <time>2016-06-24T14:31:41Z</time>
      </trkpt>
      <trkpt lat="44.44659" lon="1.06933">
        <ele>222.2</ele>
        <time>2016-06-24T14:31:49Z</time>
      </trkpt>
      <trkpt lat="44.44655" lon="1.06934">
        <ele>222.2</ele>
        <time>2016-06-24T14:31:52Z</time>
      </trkpt>
      <trkpt lat="44.44634" lon="1.06936">
        <ele>221.72</ele>
        <time>2016-06-24T14:32:08Z</time>
      </trkpt>
      <trkpt lat="44.44613" lon="1.0694">
        <ele>221.72</ele>
        <time>2016-06-24T14:32:23Z</time>
      </trkpt>
      <trkpt lat="44.44595" lon="1.06944">
        <ele>221.72</ele>
        <time>2016-06-24T14:32:36Z</time>
      </trkpt>
      <trkpt lat="44.4458" lon="1.06945">
        <ele>221.72</ele>
        <time>2016-06-24T14:32:47Z</time>
      </trkpt>
      <trkpt lat="44.44562" lon="1.06949">
        <ele>223.16</ele>
        <time>2016-06-24T14:33:01Z</time>
      </trkpt>
      <trkpt lat="44.44548" lon="1.06952">
        <ele>223.64</ele>
        <time>2016-06-24T14:33:12Z</time>
      </trkpt>
      <trkpt lat="44.44541" lon="1.06956">
        <ele>223.64</ele>
        <time>2016-06-24T14:33:18Z</time>
      </trkpt>
      <trkpt lat="44.44526" lon="1.06964">
        <ele>224.12</ele>
        <time>2016-06-24T14:33:32Z</time>
      </trkpt>
      <trkpt lat="44.4451" lon="1.06968">
        <ele>224.12</ele>
        <time>2016-06-24T14:33:45Z</time>
      </trkpt>
      <trkpt lat="44.44501" lon="1.06971">
        <ele>224.12</ele>
        <time>2016-06-24T14:33:51Z</time>
      </trkpt>
      <trkpt lat="44.44484" lon="1.0698">
        <ele>224.12</ele>
        <time>2016-06-24T14:34:05Z</time>
      </trkpt>
      <trkpt lat="44.44468" lon="1.06985">
        <ele>224.12</ele>
        <time>2016-06-24T14:34:17Z</time>
      </trkpt>
      <trkpt lat="44.44461" lon="1.06987">
        <ele>224.12</ele>
        <time>2016-06-24T14:34:22Z</time>
      </trkpt>
      <trkpt lat="44.44446" lon="1.0699">
        <ele>224.61</ele>
        <time>2016-06-24T14:34:35Z</time>
      </trkpt>
      <trkpt lat="44.44431" lon="1.06995">
        <ele>224.61</ele>
        <time>2016-06-24T14:34:47Z</time>
      </trkpt>
      <trkpt lat="44.44414" lon="1.07002">
        <ele>225.09</ele>
        <time>2016-06-24T14:34:59Z</time>
      </trkpt>
      <trkpt lat="44.44408" lon="1.07006">
        <ele>225.57</ele>
        <time>2016-06-24T14:35:04Z</time>
      </trkpt>
      <trkpt lat="44.4439" lon="1.07009">
        <ele>225.57</ele>
        <time>2016-06-24T14:35:17Z</time>
      </trkpt>
      <trkpt lat="44.4438" lon="1.0701">
        <ele>225.57</ele>
        <time>2016-06-24T14:35:25Z</time>
      </trkpt>
      <trkpt lat="44.44365" lon="1.07008">
        <ele>226.05</ele>
        <time>2016-06-24T14:35:36Z</time>
      </trkpt>
      <trkpt lat="44.44359" lon="1.07007">
        <ele>226.05</ele>
        <time>2016-06-24T14:35:41Z</time>
      </trkpt>
      <trkpt lat="44.4434" lon="1.07">
        <ele>226.53</ele>
        <time>2016-06-24T14:35:55Z</time>
      </trkpt>
      <trkpt lat="44.44327" lon="1.06999">
        <ele>227.01</ele>
        <time>2016-06-24T14:36:06Z</time>
      </trkpt>
      <trkpt lat="44.44312" lon="1.06998">
        <ele>228.45</ele>
        <time>2016-06-24T14:36:15Z</time>
      </trkpt>
      <trkpt lat="44.44304" lon="1.06995">
        <ele>228.45</ele>
        <time>2016-06-24T14:36:20Z</time>
      </trkpt>
      <trkpt lat="44.44296" lon="1.06991">
        <ele>228.93</ele>
        <time>2016-06-24T14:36:27Z</time>
      </trkpt>
      <trkpt lat="44.44279" lon="1.06984">
        <ele>229.89</ele>
        <time>2016-06-24T14:36:41Z</time>
      </trkpt>
      <trkpt lat="44.4427" lon="1.06983">
        <ele>230.37</ele>
        <time>2016-06-24T14:36:48Z</time>
      </trkpt>
      <trkpt lat="44.44268" lon="1.06982">
        <ele>230.85</ele>
        <time>2016-06-24T14:36:50Z</time>
      </trkpt>
      <trkpt lat="44.4425" lon="1.06981">
        <ele>231.33</ele>
        <time>2016-06-24T14:37:03Z</time>
      </trkpt>
      <trkpt lat="44.44249" lon="1.06981">
        <ele>231.33</ele>
        <time>2016-06-24T14:37:04Z</time>
      </trkpt>
      <trkpt lat="44.44245" lon="1.06981">
        <ele>231.81</ele>
        <time>2016-06-24T14:37:07Z</time>
      </trkpt>
      <trkpt lat="44.44229" lon="1.06984">
        <ele>232.78</ele>
        <time>2016-06-24T14:37:19Z</time>
      </trkpt>
      <trkpt lat="44.44219" lon="1.06987">
        <ele>233.26</ele>
        <time>2016-06-24T14:37:27Z</time>
      </trkpt>
      <trkpt lat="44.44199" lon="1.06994">
        <ele>234.22</ele>
        <time>2016-06-24T14:37:42Z</time>
      </trkpt>
      <trkpt lat="44.44181" lon="1.07">
        <ele>235.18</ele>
        <time>2016-06-24T14:37:56Z</time>
      </trkpt>
      <trkpt lat="44.44177" lon="1.07">
        <ele>235.66</ele>
        <time>2016-06-24T14:37:59Z</time>
      </trkpt>
      <trkpt lat="44.44172" lon="1.07">
        <ele>235.66</ele>
        <time>2016-06-24T14:38:03Z</time>
      </trkpt>
      <trkpt lat="44.44157" lon="1.07003">
        <ele>236.14</ele>
        <time>2016-06-24T14:38:15Z</time>
      </trkpt>
      <trkpt lat="44.4414" lon="1.07006">
        <ele>236.62</ele>
        <time>2016-06-24T14:38:28Z</time>
      </trkpt>
      <trkpt lat="44.44138" lon="1.07007">
        <ele>236.62</ele>
        <time>2016-06-24T14:38:29Z</time>
      </trkpt>
      <trkpt lat="44.44122" lon="1.07009">
        <ele>237.1</ele>
        <time>2016-06-24T14:38:42Z</time>
      </trkpt>
      <trkpt lat="44.44121" lon="1.0701">
        <ele>237.1</ele>
        <time>2016-06-24T14:38:43Z</time>
      </trkpt>
      <trkpt lat="44.44112" lon="1.07013">
        <ele>237.58</ele>
        <time>2016-06-24T14:38:49Z</time>
      </trkpt>
      <trkpt lat="44.44096" lon="1.07017">
        <ele>238.06</ele>
        <time>2016-06-24T14:39:01Z</time>
      </trkpt>
      <trkpt lat="44.44085" lon="1.07021">
        <ele>238.54</ele>
        <time>2016-06-24T14:39:11Z</time>
      </trkpt>
      <trkpt lat="44.44082" lon="1.07022">
        <ele>238.54</ele>
        <time>2016-06-24T14:39:13Z</time>
      </trkpt>
      <trkpt lat="44.44063" lon="1.07028">
        <ele>239.51</ele>
        <time>2016-06-24T14:39:28Z</time>
      </trkpt>
      <trkpt lat="44.44045" lon="1.07037">
        <ele>239.99</ele>
        <time>2016-06-24T14:39:41Z</time>
      </trkpt>
      <trkpt lat="44.44025" lon="1.07045">
        <ele>240.95</ele>
        <time>2016-06-24T14:39:56Z</time>
      </trkpt>
      <trkpt lat="44.44011" lon="1.0705">
        <ele>241.43</ele>
        <time>2016-06-24T14:40:07Z</time>
      </trkpt>
      <trkpt lat="44.44003" lon="1.07051">
        <ele>241.91</ele>
        <time>2016-06-24T14:40:13Z</time>
      </trkpt>
      <trkpt lat="44.43984" lon="1.0705">
        <ele>242.39</ele>
        <time>2016-06-24T14:40:27Z</time>
      </trkpt>
      <trkpt lat="44.43964" lon="1.07048">
        <ele>242.87</ele>
        <time>2016-06-24T14:40:41Z</time>
      </trkpt>
      <trkpt lat="44.43947" lon="1.07046">
        <ele>243.83</ele>
        <time>2016-06-24T14:40:54Z</time>
      </trkpt>
      <trkpt lat="44.43932" lon="1.07044">
        <ele>244.31</ele>
        <time>2016-06-24T14:41:05Z</time>
      </trkpt>
      <trkpt lat="44.43921" lon="1.07042">
        <ele>245.27</ele>
        <time>2016-06-24T14:41:13Z</time>
      </trkpt>
      <trkpt lat="44.43905" lon="1.07041">
        <ele>245.75</ele>
        <time>2016-06-24T14:41:25Z</time>
      </trkpt>
      <trkpt lat="44.43888" lon="1.07046">
        <ele>246.23</ele>
        <time>2016-06-24T14:41:39Z</time>
      </trkpt>
      <trkpt lat="44.43872" lon="1.07056">
        <ele>246.72</ele>
        <time>2016-06-24T14:41:53Z</time>
      </trkpt>
      <trkpt lat="44.43851" lon="1.0707">
        <ele>246.72</ele>
        <time>2016-06-24T14:42:08Z</time>
      </trkpt>
      <trkpt lat="44.43836" lon="1.07095">
        <ele>246.72</ele>
        <time>2016-06-24T14:42:24Z</time>
      </trkpt>
      <trkpt lat="44.43826" lon="1.07118">
        <ele>246.72</ele>
        <time>2016-06-24T14:42:38Z</time>
      </trkpt>
      <trkpt lat="44.43817" lon="1.07137">
        <ele>246.72</ele>
        <time>2016-06-24T14:42:50Z</time>
      </trkpt>
      <trkpt lat="44.43802" lon="1.07153">
        <ele>247.2</ele>
        <time>2016-06-24T14:43:05Z</time>
      </trkpt>
      <trkpt lat="44.43799" lon="1.07155">
        <ele>247.2</ele>
        <time>2016-06-24T14:43:18Z</time>
      </trkpt>
      <trkpt lat="44.43794" lon="1.0716">
        <ele>247.68</ele>
        <time>2016-06-24T14:43:32Z</time>
      </trkpt>
      <trkpt lat="44.43786" lon="1.07173">
        <ele>248.64</ele>
        <time>2016-06-24T14:43:50Z</time>
      </trkpt>
      <trkpt lat="44.43779" lon="1.07195">
        <ele>249.12</ele>
        <time>2016-06-24T14:44:03Z</time>
      </trkpt>
      <trkpt lat="44.4377" lon="1.07209">
        <ele>249.12</ele>
        <time>2016-06-24T14:44:13Z</time>
      </trkpt>
      <trkpt lat="44.43766" lon="1.0721">
        <ele>249.6</ele>
        <time>2016-06-24T14:44:17Z</time>
      </trkpt>
      <trkpt lat="44.43755" lon="1.07208">
        <ele>250.56</ele>
        <time>2016-06-24T14:44:26Z</time>
      </trkpt>
      <trkpt lat="44.43744" lon="1.07204">
        <ele>251.04</ele>
        <time>2016-06-24T14:44:36Z</time>
      </trkpt>
      <trkpt lat="44.43726" lon="1.072">
        <ele>252</ele>
        <time>2016-06-24T14:44:50Z</time>
      </trkpt>
      <trkpt lat="44.43721" lon="1.07198">
        <ele>252.48</ele>
        <time>2016-06-24T14:44:54Z</time>
      </trkpt>
      <trkpt lat="44.43703" lon="1.07196">
        <ele>252.96</ele>
        <time>2016-06-24T14:45:07Z</time>
      </trkpt>
      <trkpt lat="44.43682" lon="1.07189">
        <ele>252.96</ele>
        <time>2016-06-24T14:45:23Z</time>
      </trkpt>
      <trkpt lat="44.43662" lon="1.0718">
        <ele>252</ele>
        <time>2016-06-24T14:45:37Z</time>
      </trkpt>
      <trkpt lat="44.4364" lon="1.07158">
        <ele>251.04</ele>
        <time>2016-06-24T14:45:57Z</time>
      </trkpt>
      <trkpt lat="44.43623" lon="1.07142">
        <ele>250.56</ele>
        <time>2016-06-24T14:46:12Z</time>
      </trkpt>
      <trkpt lat="44.43607" lon="1.07126">
        <ele>250.08</ele>
        <time>2016-06-24T14:46:26Z</time>
      </trkpt>
      <trkpt lat="44.43593" lon="1.07108">
        <ele>250.08</ele>
        <time>2016-06-24T14:46:40Z</time>
      </trkpt>
      <trkpt lat="44.43578" lon="1.07094">
        <ele>250.08</ele>
        <time>2016-06-24T14:46:53Z</time>
      </trkpt>
      <trkpt lat="44.43559" lon="1.07081">
        <ele>250.08</ele>
        <time>2016-06-24T14:47:09Z</time>
      </trkpt>
      <trkpt lat="44.43541" lon="1.07069">
        <ele>249.6</ele>
        <time>2016-06-24T14:47:25Z</time>
      </trkpt>
      <trkpt lat="44.43521" lon="1.07061">
        <ele>249.6</ele>
        <time>2016-06-24T14:47:40Z</time>
      </trkpt>
      <trkpt lat="44.43501" lon="1.07049">
        <ele>249.6</ele>
        <time>2016-06-24T14:47:56Z</time>
      </trkpt>
      <trkpt lat="44.43485" lon="1.07033">
        <ele>249.6</ele>
        <time>2016-06-24T14:48:11Z</time>
      </trkpt>
      <trkpt lat="44.43478" lon="1.07009">
        <ele>249.6</ele>
        <time>2016-06-24T14:48:26Z</time>
      </trkpt>
      <trkpt lat="44.43473" lon="1.06982">
        <ele>248.64</ele>
        <time>2016-06-24T14:48:40Z</time>
      </trkpt>
      <trkpt lat="44.43472" lon="1.06959">
        <ele>248.16</ele>
        <time>2016-06-24T14:48:52Z</time>
      </trkpt>
      <trkpt lat="44.43473" lon="1.06926">
        <ele>247.2</ele>
        <time>2016-06-24T14:49:09Z</time>
      </trkpt>
      <trkpt lat="44.43477" lon="1.06897">
        <ele>246.72</ele>
        <time>2016-06-24T14:49:24Z</time>
      </trkpt>
      <trkpt lat="44.43477" lon="1.06893">
        <ele>246.72</ele>
        <time>2016-06-24T14:49:26Z</time>
      </trkpt>
      <trkpt lat="44.43479" lon="1.06886">
        <ele>245.75</ele>
        <time>2016-06-24T14:49:30Z</time>
      </trkpt>
      <trkpt lat="44.43479" lon="1.0688">
        <ele>245.75</ele>
        <time>2016-06-24T14:49:33Z</time>
      </trkpt>
      <trkpt lat="44.43483" lon="1.06865">
        <ele>245.75</ele>
        <time>2016-06-24T14:49:41Z</time>
      </trkpt>
      <trkpt lat="44.43484" lon="1.06848">
        <ele>245.27</ele>
        <time>2016-06-24T14:49:49Z</time>
      </trkpt>
      <trkpt lat="44.43484" lon="1.06844">
        <ele>245.27</ele>
        <time>2016-06-24T14:49:51Z</time>
      </trkpt>
      <trkpt lat="44.43486" lon="1.06824">
        <ele>245.27</ele>
        <time>2016-06-24T14:50:01Z</time>
      </trkpt>
      <trkpt lat="44.43487" lon="1.06812">
        <ele>245.27</ele>
        <time>2016-06-24T14:50:07Z</time>
      </trkpt>
      <trkpt lat="44.43489" lon="1.06782">
        <ele>245.27</ele>
        <time>2016-06-24T14:50:22Z</time>
      </trkpt>
      <trkpt lat="44.43493" lon="1.06757">
        <ele>245.27</ele>
        <time>2016-06-24T14:50:36Z</time>
      </trkpt>
      <trkpt lat="44.43493" lon="1.06755">
        <ele>245.27</ele>
        <time>2016-06-24T14:50:37Z</time>
      </trkpt>
      <trkpt lat="44.43494" lon="1.0675">
        <ele>245.27</ele>
        <time>2016-06-24T14:50:40Z</time>
      </trkpt>
      <trkpt lat="44.43495" lon="1.06734">
        <ele>245.27</ele>
        <time>2016-06-24T14:50:47Z</time>
      </trkpt>
      <trkpt lat="44.43497" lon="1.06716">
        <ele>245.27</ele>
        <time>2016-06-24T14:50:56Z</time>
      </trkpt>
      <trkpt lat="44.43498" lon="1.06708">
        <ele>245.27</ele>
        <time>2016-06-24T14:51:00Z</time>
      </trkpt>
      <trkpt lat="44.43498" lon="1.06702">
        <ele>245.27</ele>
        <time>2016-06-24T14:51:03Z</time>
      </trkpt>
      <trkpt lat="44.43499" lon="1.06696">
        <ele>245.27</ele>
        <time>2016-06-24T14:51:06Z</time>
      </trkpt>
      <trkpt lat="44.43498" lon="1.06684">
        <ele>245.27</ele>
        <time>2016-06-24T14:51:12Z</time>
      </trkpt>
      <trkpt lat="44.43499" lon="1.06669">
        <ele>245.27</ele>
        <time>2016-06-24T14:51:20Z</time>
      </trkpt>
      <trkpt lat="44.435" lon="1.06658">
        <ele>245.27</ele>
        <time>2016-06-24T14:51:26Z</time>
      </trkpt>
      <trkpt lat="44.43503" lon="1.06643">
        <ele>245.27</ele>
        <time>2016-06-24T14:51:34Z</time>
      </trkpt>
      <trkpt lat="44.43502" lon="1.06616">
        <ele>245.27</ele>
        <time>2016-06-24T14:51:48Z</time>
      </trkpt>
      <trkpt lat="44.43502" lon="1.06607">
        <ele>245.27</ele>
        <time>2016-06-24T14:51:52Z</time>
      </trkpt>
      <trkpt lat="44.43498" lon="1.06575">
        <ele>245.27</ele>
        <time>2016-06-24T14:52:08Z</time>
      </trkpt>
      <trkpt lat="44.43495" lon="1.06547">
        <ele>244.79</ele>
        <time>2016-06-24T14:52:22Z</time>
      </trkpt>
      <trkpt lat="44.43492" lon="1.06521">
        <ele>244.31</ele>
        <time>2016-06-24T14:52:36Z</time>
      </trkpt>
      <trkpt lat="44.43487" lon="1.06498">
        <ele>244.31</ele>
        <time>2016-06-24T14:52:50Z</time>
      </trkpt>
      <trkpt lat="44.43487" lon="1.06489">
        <ele>244.31</ele>
        <time>2016-06-24T14:52:54Z</time>
      </trkpt>
      <trkpt lat="44.4349" lon="1.06483">
        <ele>243.35</ele>
        <time>2016-06-24T14:52:58Z</time>
      </trkpt>
      <trkpt lat="44.43494" lon="1.06468">
        <ele>243.83</ele>
        <time>2016-06-24T14:53:06Z</time>
      </trkpt>
      <trkpt lat="44.43497" lon="1.06462">
        <ele>243.83</ele>
        <time>2016-06-24T14:53:10Z</time>
      </trkpt>
      <trkpt lat="44.43505" lon="1.06441">
        <ele>242.87</ele>
        <time>2016-06-24T14:53:23Z</time>
      </trkpt>
      <trkpt lat="44.43507" lon="1.06434">
        <ele>242.39</ele>
        <time>2016-06-24T14:53:28Z</time>
      </trkpt>
      <trkpt lat="44.435" lon="1.06406">
        <ele>241.91</ele>
        <time>2016-06-24T14:53:43Z</time>
      </trkpt>
      <trkpt lat="44.43502" lon="1.064">
        <ele>241.91</ele>
        <time>2016-06-24T14:53:46Z</time>
      </trkpt>
      <trkpt lat="44.43509" lon="1.06387">
        <ele>241.43</ele>
        <time>2016-06-24T14:53:55Z</time>
      </trkpt>
      <trkpt lat="44.43517" lon="1.0637">
        <ele>240.47</ele>
        <time>2016-06-24T14:54:05Z</time>
      </trkpt>
      <trkpt lat="44.43518" lon="1.06369">
        <ele>240.47</ele>
        <time>2016-06-24T14:54:06Z</time>
      </trkpt>
      <trkpt lat="44.43524" lon="1.06355">
        <ele>240.47</ele>
        <time>2016-06-24T14:54:15Z</time>
      </trkpt>
      <trkpt lat="44.43529" lon="1.06338">
        <ele>239.99</ele>
        <time>2016-06-24T14:54:25Z</time>
      </trkpt>
      <trkpt lat="44.43535" lon="1.06325">
        <ele>239.02</ele>
        <time>2016-06-24T14:54:34Z</time>
      </trkpt>
      <trkpt lat="44.43541" lon="1.06311">
        <ele>238.54</ele>
        <time>2016-06-24T14:54:42Z</time>
      </trkpt>
      <trkpt lat="44.43546" lon="1.06298">
        <ele>238.06</ele>
        <time>2016-06-24T14:54:50Z</time>
      </trkpt>
      <trkpt lat="44.43547" lon="1.06293">
        <ele>238.06</ele>
        <time>2016-06-24T14:54:53Z</time>
      </trkpt>
      <trkpt lat="44.43551" lon="1.06276">
        <ele>237.1</ele>
        <time>2016-06-24T14:55:03Z</time>
      </trkpt>
      <trkpt lat="44.43559" lon="1.06261">
        <ele>236.62</ele>
        <time>2016-06-24T14:55:13Z</time>
      </trkpt>
      <trkpt lat="44.43564" lon="1.06253">
        <ele>235.66</ele>
        <time>2016-06-24T14:55:19Z</time>
      </trkpt>
      <trkpt lat="44.43568" lon="1.06247">
        <ele>235.18</ele>
        <time>2016-06-24T14:55:23Z</time>
      </trkpt>
      <trkpt lat="44.43571" lon="1.06246">
        <ele>235.18</ele>
        <time>2016-06-24T14:55:25Z</time>
      </trkpt>
      <trkpt lat="44.43581" lon="1.06241">
        <ele>234.7</ele>
        <time>2016-06-24T14:55:34Z</time>
      </trkpt>
      <trkpt lat="44.43582" lon="1.0624">
        <ele>234.7</ele>
        <time>2016-06-24T14:55:35Z</time>
      </trkpt>
      <trkpt lat="44.43601" lon="1.06233">
        <ele>234.7</ele>
        <time>2016-06-24T14:55:47Z</time>
      </trkpt>
      <trkpt lat="44.43602" lon="1.06232">
        <ele>234.7</ele>
        <time>2016-06-24T14:55:48Z</time>
      </trkpt>
      <trkpt lat="44.436" lon="1.06223">
        <ele>234.7</ele>
        <time>2016-06-24T14:55:54Z</time>
      </trkpt>
      <trkpt lat="44.43587" lon="1.06204">
        <ele>233.26</ele>
        <time>2016-06-24T14:56:10Z</time>
      </trkpt>
      <trkpt lat="44.43576" lon="1.06186">
        <ele>231.33</ele>
        <time>2016-06-24T14:56:23Z</time>
      </trkpt>
      <trkpt lat="44.43558" lon="1.06165">
        <ele>230.37</ele>
        <time>2016-06-24T14:56:40Z</time>
      </trkpt>
      <trkpt lat="44.43542" lon="1.06145">
        <ele>230.37</ele>
        <time>2016-06-24T14:56:56Z</time>
      </trkpt>
      <trkpt lat="44.43527" lon="1.06126">
        <ele>229.89</ele>
        <time>2016-06-24T14:57:11Z</time>
      </trkpt>
      <trkpt lat="44.4351" lon="1.06107">
        <ele>231.33</ele>
        <time>2016-06-24T14:57:27Z</time>
      </trkpt>
      <trkpt lat="44.43498" lon="1.06094">
        <ele>232.3</ele>
        <time>2016-06-24T14:57:39Z</time>
      </trkpt>
      <trkpt lat="44.43484" lon="1.06078">
        <ele>233.26</ele>
        <time>2016-06-24T14:57:52Z</time>
      </trkpt>
      <trkpt lat="44.43471" lon="1.06066">
        <ele>233.74</ele>
        <time>2016-06-24T14:58:04Z</time>
      </trkpt>
      <trkpt lat="44.43457" lon="1.06049">
        <ele>235.18</ele>
        <time>2016-06-24T14:58:18Z</time>
      </trkpt>
      <trkpt lat="44.43443" lon="1.06032">
        <ele>237.1</ele>
        <time>2016-06-24T14:58:32Z</time>
      </trkpt>
      <trkpt lat="44.43431" lon="1.06014">
        <ele>238.54</ele>
        <time>2016-06-24T14:58:47Z</time>
      </trkpt>
      <trkpt lat="44.43422" lon="1.05991">
        <ele>240.47</ele>
        <time>2016-06-24T14:59:01Z</time>
      </trkpt>
      <trkpt lat="44.43422" lon="1.05987">
        <ele>241.43</ele>
        <time>2016-06-24T14:59:03Z</time>
      </trkpt>
      <trkpt lat="44.43423" lon="1.05982">
        <ele>241.91</ele>
        <time>2016-06-24T14:59:06Z</time>
      </trkpt>
      <trkpt lat="44.43428" lon="1.05975">
        <ele>242.39</ele>
        <time>2016-06-24T14:59:12Z</time>
      </trkpt>
      <trkpt lat="44.43434" lon="1.0597">
        <ele>242.87</ele>
        <time>2016-06-24T14:59:18Z</time>
      </trkpt>
      <trkpt lat="44.43451" lon="1.05957">
        <ele>243.35</ele>
        <time>2016-06-24T14:59:32Z</time>
      </trkpt>
      <trkpt lat="44.43452" lon="1.05956">
        <ele>243.35</ele>
        <time>2016-06-24T14:59:33Z</time>
      </trkpt>
      <trkpt lat="44.43464" lon="1.05943">
        <ele>243.35</ele>
        <time>2016-06-24T14:59:44Z</time>
      </trkpt>
      <trkpt lat="44.43477" lon="1.05929">
        <ele>241.91</ele>
        <time>2016-06-24T14:59:56Z</time>
      </trkpt>
      <trkpt lat="44.43489" lon="1.05917">
        <ele>241.43</ele>
        <time>2016-06-24T15:00:07Z</time>
      </trkpt>
      <trkpt lat="44.4349" lon="1.05916">
        <ele>241.43</ele>
        <time>2016-06-24T15:00:08Z</time>
      </trkpt>
      <trkpt lat="44.43498" lon="1.05908">
        <ele>240.47</ele>
        <time>2016-06-24T15:00:15Z</time>
      </trkpt>
      <trkpt lat="44.43499" lon="1.05906">
        <ele>240.47</ele>
        <time>2016-06-24T15:00:16Z</time>
      </trkpt>
      <trkpt lat="44.43512" lon="1.05895">
        <ele>240.47</ele>
        <time>2016-06-24T15:00:27Z</time>
      </trkpt>
      <trkpt lat="44.43522" lon="1.05886">
        <ele>239.99</ele>
        <time>2016-06-24T15:00:35Z</time>
      </trkpt>
      <trkpt lat="44.43523" lon="1.05885">
        <ele>239.99</ele>
        <time>2016-06-24T15:00:36Z</time>
      </trkpt>
      <trkpt lat="44.43524" lon="1.05884">
        <ele>239.99</ele>
        <time>2016-06-24T15:00:37Z</time>
      </trkpt>
      <trkpt lat="44.43526" lon="1.05882">
        <ele>239.99</ele>
        <time>2016-06-24T15:00:39Z</time>
      </trkpt>
      <trkpt lat="44.43528" lon="1.05881">
        <ele>239.99</ele>
        <time>2016-06-24T15:00:40Z</time>
      </trkpt>
      <trkpt lat="44.43529" lon="1.05879">
        <ele>239.99</ele>
        <time>2016-06-24T15:00:41Z</time>
      </trkpt>
      <trkpt lat="44.4353" lon="1.05878">
        <ele>239.51</ele>
        <time>2016-06-24T15:00:42Z</time>
      </trkpt>
      <trkpt lat="44.43531" lon="1.05877">
        <ele>239.51</ele>
        <time>2016-06-24T15:00:43Z</time>
      </trkpt>
      <trkpt lat="44.43532" lon="1.05875">
        <ele>239.51</ele>
        <time>2016-06-24T15:00:44Z</time>
      </trkpt>
      <trkpt lat="44.43534" lon="1.05873">
        <ele>239.51</ele>
        <time>2016-06-24T15:00:46Z</time>
      </trkpt>
      <trkpt lat="44.43535" lon="1.05872">
        <ele>239.51</ele>
        <time>2016-06-24T15:00:47Z</time>
      </trkpt>
      <trkpt lat="44.43536" lon="1.05871">
        <ele>239.51</ele>
        <time>2016-06-24T15:00:48Z</time>
      </trkpt>
      <trkpt lat="44.43543" lon="1.05867">
        <ele>239.02</ele>
        <time>2016-06-24T15:00:53Z</time>
      </trkpt>
      <trkpt lat="44.43544" lon="1.05866">
        <ele>239.02</ele>
        <time>2016-06-24T15:00:54Z</time>
      </trkpt>
      <trkpt lat="44.43545" lon="1.05864">
        <ele>239.02</ele>
        <time>2016-06-24T15:00:55Z</time>
      </trkpt>
      <trkpt lat="44.43547" lon="1.05863">
        <ele>239.02</ele>
        <time>2016-06-24T15:00:56Z</time>
      </trkpt>
      <trkpt lat="44.43557" lon="1.05854">
        <ele>238.54</ele>
        <time>2016-06-24T15:01:05Z</time>
      </trkpt>
      <trkpt lat="44.43559" lon="1.05853">
        <ele>238.54</ele>
        <time>2016-06-24T15:01:06Z</time>
      </trkpt>
      <trkpt lat="44.4356" lon="1.05852">
        <ele>238.54</ele>
        <time>2016-06-24T15:01:07Z</time>
      </trkpt>
      <trkpt lat="44.43561" lon="1.0585">
        <ele>238.54</ele>
        <time>2016-06-24T15:01:08Z</time>
      </trkpt>
      <trkpt lat="44.43562" lon="1.05849">
        <ele>238.54</ele>
        <time>2016-06-24T15:01:09Z</time>
      </trkpt>
      <trkpt lat="44.43563" lon="1.05848">
        <ele>238.54</ele>
        <time>2016-06-24T15:01:10Z</time>
      </trkpt>
      <trkpt lat="44.4357" lon="1.05843">
        <ele>238.54</ele>
        <time>2016-06-24T15:01:15Z</time>
      </trkpt>
      <trkpt lat="44.43571" lon="1.05842">
        <ele>237.58</ele>
        <time>2016-06-24T15:01:16Z</time>
      </trkpt>
      <trkpt lat="44.43576" lon="1.05835">
        <ele>237.58</ele>
        <time>2016-06-24T15:01:21Z</time>
      </trkpt>
      <trkpt lat="44.43577" lon="1.05834">
        <ele>237.58</ele>
        <time>2016-06-24T15:01:22Z</time>
      </trkpt>
      <trkpt lat="44.43579" lon="1.05833">
        <ele>237.58</ele>
        <time>2016-06-24T15:01:23Z</time>
      </trkpt>
      <trkpt lat="44.43583" lon="1.05828">
        <ele>237.58</ele>
        <time>2016-06-24T15:01:27Z</time>
      </trkpt>
      <trkpt lat="44.43584" lon="1.05826">
        <ele>237.58</ele>
        <time>2016-06-24T15:01:28Z</time>
      </trkpt>
      <trkpt lat="44.43591" lon="1.05816">
        <ele>237.58</ele>
        <time>2016-06-24T15:01:35Z</time>
      </trkpt>
      <trkpt lat="44.43592" lon="1.05814">
        <ele>237.58</ele>
        <time>2016-06-24T15:01:36Z</time>
      </trkpt>
      <trkpt lat="44.43593" lon="1.05813">
        <ele>237.58</ele>
        <time>2016-06-24T15:01:37Z</time>
      </trkpt>
      <trkpt lat="44.43595" lon="1.05812">
        <ele>237.58</ele>
        <time>2016-06-24T15:01:38Z</time>
      </trkpt>
      <trkpt lat="44.43596" lon="1.05811">
        <ele>237.58</ele>
        <time>2016-06-24T15:01:39Z</time>
      </trkpt>
      <trkpt lat="44.43597" lon="1.05809">
        <ele>237.58</ele>
        <time>2016-06-24T15:01:40Z</time>
      </trkpt>
      <trkpt lat="44.43598" lon="1.05808">
        <ele>237.58</ele>
        <time>2016-06-24T15:01:41Z</time>
      </trkpt>
      <trkpt lat="44.43599" lon="1.05807">
        <ele>237.58</ele>
        <time>2016-06-24T15:01:42Z</time>
      </trkpt>
      <trkpt lat="44.436" lon="1.05805">
        <ele>237.58</ele>
        <time>2016-06-24T15:01:43Z</time>
      </trkpt>
      <trkpt lat="44.43604" lon="1.05799">
        <ele>237.1</ele>
        <time>2016-06-24T15:01:47Z</time>
      </trkpt>
      <trkpt lat="44.43604" lon="1.05798">
        <ele>237.1</ele>
        <time>2016-06-24T15:01:48Z</time>
      </trkpt>
      <trkpt lat="44.43614" lon="1.05789">
        <ele>237.1</ele>
        <time>2016-06-24T15:01:57Z</time>
      </trkpt>
      <trkpt lat="44.43624" lon="1.05776">
        <ele>237.1</ele>
        <time>2016-06-24T15:02:07Z</time>
      </trkpt>
      <trkpt lat="44.4363" lon="1.05771">
        <ele>236.62</ele>
        <time>2016-06-24T15:02:11Z</time>
      </trkpt>
      <trkpt lat="44.43631" lon="1.0577">
        <ele>236.62</ele>
        <time>2016-06-24T15:02:12Z</time>
      </trkpt>
      <trkpt lat="44.43642" lon="1.0576">
        <ele>236.14</ele>
        <time>2016-06-24T15:02:22Z</time>
      </trkpt>
      <trkpt lat="44.43643" lon="1.05758">
        <ele>236.14</ele>
        <time>2016-06-24T15:02:23Z</time>
      </trkpt>
      <trkpt lat="44.43643" lon="1.05757">
        <ele>236.14</ele>
        <time>2016-06-24T15:02:24Z</time>
      </trkpt>
      <trkpt lat="44.43654" lon="1.05747">
        <ele>235.66</ele>
        <time>2016-06-24T15:02:34Z</time>
      </trkpt>
      <trkpt lat="44.43658" lon="1.0574">
        <ele>235.66</ele>
        <time>2016-06-24T15:02:39Z</time>
      </trkpt>
      <trkpt lat="44.43656" lon="1.05734">
        <ele>235.18</ele>
        <time>2016-06-24T15:02:50Z</time>
      </trkpt>
      <trkpt lat="44.4365" lon="1.05725">
        <ele>235.18</ele>
        <time>2016-06-24T15:03:01Z</time>
      </trkpt>
      <trkpt lat="44.43648" lon="1.05721">
        <ele>235.18</ele>
        <time>2016-06-24T15:03:12Z</time>
      </trkpt>
      <trkpt lat="44.43648" lon="1.05721">
        <ele>235.18</ele>
        <time>2016-06-24T15:03:29Z</time>
      </trkpt>
      <trkpt lat="44.43648" lon="1.05722">
        <ele>234.7</ele>
        <time>2016-06-24T15:03:55Z</time>
      </trkpt>
      <trkpt lat="44.43648" lon="1.05722">
        <ele>234.7</ele>
        <time>2016-06-24T15:04:22Z</time>
      </trkpt>
      <trkpt lat="44.43647" lon="1.05722">
        <ele>234.7</ele>
        <time>2016-06-24T15:04:47Z</time>
      </trkpt>
      <trkpt lat="44.43647" lon="1.05722">
        <ele>234.7</ele>
        <time>2016-06-24T15:05:13Z</time>
      </trkpt>
      <trkpt lat="44.43648" lon="1.05722">
        <ele>234.7</ele>
        <time>2016-06-24T15:05:43Z</time>
      </trkpt>
      <trkpt lat="44.43648" lon="1.05722">
        <ele>234.7</ele>
        <time>2016-06-24T15:06:07Z</time>
      </trkpt>
      <trkpt lat="44.43649" lon="1.05722">
        <ele>234.7</ele>
        <time>2016-06-24T15:06:24Z</time>
      </trkpt>
      <trkpt lat="44.4365" lon="1.05723">
        <ele>234.7</ele>
        <time>2016-06-24T15:06:25Z</time>
      </trkpt>
      <trkpt lat="44.43651" lon="1.05726">
        <ele>234.7</ele>
        <time>2016-06-24T15:06:28Z</time>
      </trkpt>
      <trkpt lat="44.43652" lon="1.05726">
        <ele>234.7</ele>
        <time>2016-06-24T15:06:29Z</time>
      </trkpt>
      <trkpt lat="44.43655" lon="1.05728">
        <ele>234.7</ele>
        <time>2016-06-24T15:06:32Z</time>
      </trkpt>
      <trkpt lat="44.4366" lon="1.05733">
        <ele>234.7</ele>
        <time>2016-06-24T15:06:40Z</time>
      </trkpt>
      <trkpt lat="44.43662" lon="1.05734">
        <ele>234.7</ele>
        <time>2016-06-24T15:06:42Z</time>
      </trkpt>
      <trkpt lat="44.43666" lon="1.05732">
        <ele>234.7</ele>
        <time>2016-06-24T15:06:45Z</time>
      </trkpt>
      <trkpt lat="44.43667" lon="1.05732">
        <ele>234.7</ele>
        <time>2016-06-24T15:06:46Z</time>
      </trkpt>
      <trkpt lat="44.43668" lon="1.05731">
        <ele>234.7</ele>
        <time>2016-06-24T15:06:47Z</time>
      </trkpt>
      <trkpt lat="44.43675" lon="1.05727">
        <ele>234.7</ele>
        <time>2016-06-24T15:06:53Z</time>
      </trkpt>
      <trkpt lat="44.43685" lon="1.05716">
        <ele>234.22</ele>
        <time>2016-06-24T15:07:04Z</time>
      </trkpt>
      <trkpt lat="44.43697" lon="1.05707">
        <ele>233.74</ele>
        <time>2016-06-24T15:07:14Z</time>
      </trkpt>
      <trkpt lat="44.43708" lon="1.05697">
        <ele>232.78</ele>
        <time>2016-06-24T15:07:22Z</time>
      </trkpt>
      <trkpt lat="44.4371" lon="1.05694">
        <ele>232.78</ele>
        <time>2016-06-24T15:07:24Z</time>
      </trkpt>
      <trkpt lat="44.43711" lon="1.05692">
        <ele>232.78</ele>
        <time>2016-06-24T15:07:25Z</time>
      </trkpt>
      <trkpt lat="44.43712" lon="1.0569">
        <ele>232.78</ele>
        <time>2016-06-24T15:07:26Z</time>
      </trkpt>
      <trkpt lat="44.43713" lon="1.05689">
        <ele>232.78</ele>
        <time>2016-06-24T15:07:27Z</time>
      </trkpt>
      <trkpt lat="44.43715" lon="1.05687">
        <ele>232.78</ele>
        <time>2016-06-24T15:07:28Z</time>
      </trkpt>
      <trkpt lat="44.43716" lon="1.05686">
        <ele>232.78</ele>
        <time>2016-06-24T15:07:29Z</time>
      </trkpt>
      <trkpt lat="44.43728" lon="1.05675">
        <ele>232.3</ele>
        <time>2016-06-24T15:07:39Z</time>
      </trkpt>
      <trkpt lat="44.43731" lon="1.05668">
        <ele>232.3</ele>
        <time>2016-06-24T15:07:43Z</time>
      </trkpt>
      <trkpt lat="44.4374" lon="1.05656">
        <ele>232.3</ele>
        <time>2016-06-24T15:07:51Z</time>
      </trkpt>
      <trkpt lat="44.43744" lon="1.05651">
        <ele>232.3</ele>
        <time>2016-06-24T15:07:55Z</time>
      </trkpt>
      <trkpt lat="44.43757" lon="1.05643">
        <ele>231.81</ele>
        <time>2016-06-24T15:08:04Z</time>
      </trkpt>
      <trkpt lat="44.43764" lon="1.05633">
        <ele>231.81</ele>
        <time>2016-06-24T15:08:11Z</time>
      </trkpt>
      <trkpt lat="44.43765" lon="1.05632">
        <ele>231.81</ele>
        <time>2016-06-24T15:08:12Z</time>
      </trkpt>
      <trkpt lat="44.43767" lon="1.05631">
        <ele>231.81</ele>
        <time>2016-06-24T15:08:13Z</time>
      </trkpt>
      <trkpt lat="44.43778" lon="1.05622">
        <ele>231.33</ele>
        <time>2016-06-24T15:08:20Z</time>
      </trkpt>
      <trkpt lat="44.43779" lon="1.0562">
        <ele>231.33</ele>
        <time>2016-06-24T15:08:21Z</time>
      </trkpt>
      <trkpt lat="44.4378" lon="1.05619">
        <ele>231.33</ele>
        <time>2016-06-24T15:08:22Z</time>
      </trkpt>
      <trkpt lat="44.43782" lon="1.05617">
        <ele>231.33</ele>
        <time>2016-06-24T15:08:23Z</time>
      </trkpt>
      <trkpt lat="44.43783" lon="1.05616">
        <ele>231.33</ele>
        <time>2016-06-24T15:08:24Z</time>
      </trkpt>
      <trkpt lat="44.43784" lon="1.05614">
        <ele>231.33</ele>
        <time>2016-06-24T15:08:25Z</time>
      </trkpt>
      <trkpt lat="44.43785" lon="1.05612">
        <ele>231.33</ele>
        <time>2016-06-24T15:08:26Z</time>
      </trkpt>
      <trkpt lat="44.43786" lon="1.05611">
        <ele>231.33</ele>
        <time>2016-06-24T15:08:27Z</time>
      </trkpt>
      <trkpt lat="44.43787" lon="1.05609">
        <ele>231.33</ele>
        <time>2016-06-24T15:08:28Z</time>
      </trkpt>
      <trkpt lat="44.43788" lon="1.05607">
        <ele>231.33</ele>
        <time>2016-06-24T15:08:29Z</time>
      </trkpt>
      <trkpt lat="44.43789" lon="1.05606">
        <ele>231.33</ele>
        <time>2016-06-24T15:08:30Z</time>
      </trkpt>
      <trkpt lat="44.4379" lon="1.05605">
        <ele>231.33</ele>
        <time>2016-06-24T15:08:31Z</time>
      </trkpt>
      <trkpt lat="44.43791" lon="1.05603">
        <ele>231.33</ele>
        <time>2016-06-24T15:08:32Z</time>
      </trkpt>
      <trkpt lat="44.43792" lon="1.05601">
        <ele>231.33</ele>
        <time>2016-06-24T15:08:33Z</time>
      </trkpt>
      <trkpt lat="44.43792" lon="1.05599">
        <ele>231.33</ele>
        <time>2016-06-24T15:08:34Z</time>
      </trkpt>
      <trkpt lat="44.43793" lon="1.05596">
        <ele>231.33</ele>
        <time>2016-06-24T15:08:35Z</time>
      </trkpt>
      <trkpt lat="44.43795" lon="1.05595">
        <ele>230.37</ele>
        <time>2016-06-24T15:08:36Z</time>
      </trkpt>
      <trkpt lat="44.43796" lon="1.05593">
        <ele>230.37</ele>
        <time>2016-06-24T15:08:37Z</time>
      </trkpt>
      <trkpt lat="44.43797" lon="1.05591">
        <ele>230.37</ele>
        <time>2016-06-24T15:08:38Z</time>
      </trkpt>
      <trkpt lat="44.43798" lon="1.05588">
        <ele>230.37</ele>
        <time>2016-06-24T15:08:39Z</time>
      </trkpt>
      <trkpt lat="44.43798" lon="1.05586">
        <ele>230.37</ele>
        <time>2016-06-24T15:08:40Z</time>
      </trkpt>
      <trkpt lat="44.43799" lon="1.05583">
        <ele>230.37</ele>
        <time>2016-06-24T15:08:41Z</time>
      </trkpt>
      <trkpt lat="44.43799" lon="1.05581">
        <ele>230.37</ele>
        <time>2016-06-24T15:08:42Z</time>
      </trkpt>
      <trkpt lat="44.43799" lon="1.05578">
        <ele>230.37</ele>
        <time>2016-06-24T15:08:43Z</time>
      </trkpt>
      <trkpt lat="44.438" lon="1.05576">
        <ele>230.37</ele>
        <time>2016-06-24T15:08:44Z</time>
      </trkpt>
      <trkpt lat="44.43801" lon="1.05574">
        <ele>230.37</ele>
        <time>2016-06-24T15:08:45Z</time>
      </trkpt>
      <trkpt lat="44.43803" lon="1.05569">
        <ele>229.89</ele>
        <time>2016-06-24T15:08:48Z</time>
      </trkpt>
      <trkpt lat="44.43804" lon="1.05565">
        <ele>229.89</ele>
        <time>2016-06-24T15:08:51Z</time>
      </trkpt>
      <trkpt lat="44.43808" lon="1.05559">
        <ele>229.89</ele>
        <time>2016-06-24T15:08:55Z</time>
      </trkpt>
      <trkpt lat="44.43812" lon="1.05551">
        <ele>229.41</ele>
        <time>2016-06-24T15:08:59Z</time>
      </trkpt>
      <trkpt lat="44.43812" lon="1.0555">
        <ele>229.41</ele>
        <time>2016-06-24T15:09:00Z</time>
      </trkpt>
      <trkpt lat="44.43814" lon="1.05548">
        <ele>229.41</ele>
        <time>2016-06-24T15:09:01Z</time>
      </trkpt>
      <trkpt lat="44.43815" lon="1.05546">
        <ele>229.41</ele>
        <time>2016-06-24T15:09:02Z</time>
      </trkpt>
      <trkpt lat="44.43816" lon="1.05544">
        <ele>229.41</ele>
        <time>2016-06-24T15:09:03Z</time>
      </trkpt>
      <trkpt lat="44.43817" lon="1.05542">
        <ele>229.41</ele>
        <time>2016-06-24T15:09:04Z</time>
      </trkpt>
      <trkpt lat="44.43818" lon="1.0554">
        <ele>229.41</ele>
        <time>2016-06-24T15:09:05Z</time>
      </trkpt>
      <trkpt lat="44.43819" lon="1.05538">
        <ele>228.93</ele>
        <time>2016-06-24T15:09:06Z</time>
      </trkpt>
      <trkpt lat="44.4382" lon="1.05536">
        <ele>228.93</ele>
        <time>2016-06-24T15:09:07Z</time>
      </trkpt>
      <trkpt lat="44.43821" lon="1.05535">
        <ele>228.93</ele>
        <time>2016-06-24T15:09:08Z</time>
      </trkpt>
      <trkpt lat="44.43822" lon="1.05533">
        <ele>228.93</ele>
        <time>2016-06-24T15:09:09Z</time>
      </trkpt>
      <trkpt lat="44.43822" lon="1.05531">
        <ele>228.93</ele>
        <time>2016-06-24T15:09:10Z</time>
      </trkpt>
      <trkpt lat="44.43823" lon="1.0553">
        <ele>228.93</ele>
        <time>2016-06-24T15:09:11Z</time>
      </trkpt>
      <trkpt lat="44.43824" lon="1.05528">
        <ele>228.93</ele>
        <time>2016-06-24T15:09:12Z</time>
      </trkpt>
      <trkpt lat="44.43825" lon="1.05526">
        <ele>228.93</ele>
        <time>2016-06-24T15:09:13Z</time>
      </trkpt>
      <trkpt lat="44.43826" lon="1.05526">
        <ele>228.93</ele>
        <time>2016-06-24T15:09:14Z</time>
      </trkpt>
      <trkpt lat="44.43827" lon="1.05525">
        <ele>228.93</ele>
        <time>2016-06-24T15:09:15Z</time>
      </trkpt>
      <trkpt lat="44.43839" lon="1.05515">
        <ele>228.45</ele>
        <time>2016-06-24T15:09:24Z</time>
      </trkpt>
      <trkpt lat="44.43849" lon="1.05505">
        <ele>227.97</ele>
        <time>2016-06-24T15:09:32Z</time>
      </trkpt>
      <trkpt lat="44.4385" lon="1.05504">
        <ele>227.97</ele>
        <time>2016-06-24T15:09:33Z</time>
      </trkpt>
      <trkpt lat="44.43866" lon="1.05497">
        <ele>227.01</ele>
        <time>2016-06-24T15:09:44Z</time>
      </trkpt>
      <trkpt lat="44.43868" lon="1.05497">
        <ele>227.01</ele>
        <time>2016-06-24T15:09:45Z</time>
      </trkpt>
      <trkpt lat="44.4387" lon="1.05496">
        <ele>227.01</ele>
        <time>2016-06-24T15:09:46Z</time>
      </trkpt>
      <trkpt lat="44.43877" lon="1.05494">
        <ele>227.01</ele>
        <time>2016-06-24T15:09:50Z</time>
      </trkpt>
      <trkpt lat="44.43879" lon="1.05493">
        <ele>227.01</ele>
        <time>2016-06-24T15:09:52Z</time>
      </trkpt>
      <trkpt lat="44.4388" lon="1.05492">
        <ele>227.01</ele>
        <time>2016-06-24T15:09:53Z</time>
      </trkpt>
      <trkpt lat="44.4389" lon="1.05489">
        <ele>227.01</ele>
        <time>2016-06-24T15:10:00Z</time>
      </trkpt>
      <trkpt lat="44.43901" lon="1.05484">
        <ele>226.53</ele>
        <time>2016-06-24T15:10:09Z</time>
      </trkpt>
      <trkpt lat="44.43908" lon="1.0548">
        <ele>226.53</ele>
        <time>2016-06-24T15:10:14Z</time>
      </trkpt>
      <trkpt lat="44.43909" lon="1.0548">
        <ele>226.53</ele>
        <time>2016-06-24T15:10:15Z</time>
      </trkpt>
      <trkpt lat="44.43911" lon="1.05479">
        <ele>226.53</ele>
        <time>2016-06-24T15:10:16Z</time>
      </trkpt>
      <trkpt lat="44.43922" lon="1.05477">
        <ele>226.53</ele>
        <time>2016-06-24T15:10:24Z</time>
      </trkpt>
      <trkpt lat="44.43937" lon="1.05472">
        <ele>226.05</ele>
        <time>2016-06-24T15:10:34Z</time>
      </trkpt>
      <trkpt lat="44.43955" lon="1.05464">
        <ele>226.05</ele>
        <time>2016-06-24T15:10:47Z</time>
      </trkpt>
      <trkpt lat="44.43969" lon="1.05459">
        <ele>226.05</ele>
        <time>2016-06-24T15:10:56Z</time>
      </trkpt>
      <trkpt lat="44.4398" lon="1.05455">
        <ele>225.57</ele>
        <time>2016-06-24T15:11:04Z</time>
      </trkpt>
      <trkpt lat="44.43985" lon="1.05452">
        <ele>225.57</ele>
        <time>2016-06-24T15:11:07Z</time>
      </trkpt>
      <trkpt lat="44.43986" lon="1.05452">
        <ele>225.57</ele>
        <time>2016-06-24T15:11:08Z</time>
      </trkpt>
      <trkpt lat="44.43987" lon="1.05451">
        <ele>225.57</ele>
        <time>2016-06-24T15:11:09Z</time>
      </trkpt>
      <trkpt lat="44.44002" lon="1.05448">
        <ele>225.57</ele>
        <time>2016-06-24T15:11:19Z</time>
      </trkpt>
      <trkpt lat="44.44012" lon="1.05445">
        <ele>225.57</ele>
        <time>2016-06-24T15:11:26Z</time>
      </trkpt>
      <trkpt lat="44.44014" lon="1.05445">
        <ele>225.57</ele>
        <time>2016-06-24T15:11:27Z</time>
      </trkpt>
      <trkpt lat="44.44016" lon="1.05445">
        <ele>225.57</ele>
        <time>2016-06-24T15:11:28Z</time>
      </trkpt>
      <trkpt lat="44.44022" lon="1.05443">
        <ele>225.57</ele>
        <time>2016-06-24T15:11:33Z</time>
      </trkpt>
      <trkpt lat="44.44036" lon="1.05435">
        <ele>225.57</ele>
        <time>2016-06-24T15:11:43Z</time>
      </trkpt>
      <trkpt lat="44.4404" lon="1.05435">
        <ele>225.57</ele>
        <time>2016-06-24T15:11:45Z</time>
      </trkpt>
      <trkpt lat="44.44041" lon="1.05434">
        <ele>225.57</ele>
        <time>2016-06-24T15:11:46Z</time>
      </trkpt>
      <trkpt lat="44.44043" lon="1.05433">
        <ele>225.57</ele>
        <time>2016-06-24T15:11:47Z</time>
      </trkpt>
      <trkpt lat="44.44044" lon="1.05432">
        <ele>225.57</ele>
        <time>2016-06-24T15:11:48Z</time>
      </trkpt>
      <trkpt lat="44.44057" lon="1.05422">
        <ele>225.57</ele>
        <time>2016-06-24T15:11:59Z</time>
      </trkpt>
      <trkpt lat="44.44072" lon="1.0541">
        <ele>225.57</ele>
        <time>2016-06-24T15:12:10Z</time>
      </trkpt>
      <trkpt lat="44.44077" lon="1.05403">
        <ele>225.57</ele>
        <time>2016-06-24T15:12:15Z</time>
      </trkpt>
      <trkpt lat="44.44084" lon="1.05398">
        <ele>225.57</ele>
        <time>2016-06-24T15:12:20Z</time>
      </trkpt>
      <trkpt lat="44.44086" lon="1.05397">
        <ele>225.57</ele>
        <time>2016-06-24T15:12:21Z</time>
      </trkpt>
      <trkpt lat="44.4409" lon="1.05393">
        <ele>225.57</ele>
        <time>2016-06-24T15:12:24Z</time>
      </trkpt>
      <trkpt lat="44.44092" lon="1.05391">
        <ele>225.57</ele>
        <time>2016-06-24T15:12:26Z</time>
      </trkpt>
      <trkpt lat="44.44093" lon="1.05391">
        <ele>225.57</ele>
        <time>2016-06-24T15:12:27Z</time>
      </trkpt>
      <trkpt lat="44.44095" lon="1.05389">
        <ele>225.57</ele>
        <time>2016-06-24T15:12:28Z</time>
      </trkpt>
      <trkpt lat="44.44096" lon="1.05387">
        <ele>225.57</ele>
        <time>2016-06-24T15:12:29Z</time>
      </trkpt>
      <trkpt lat="44.44098" lon="1.05385">
        <ele>225.57</ele>
        <time>2016-06-24T15:12:30Z</time>
      </trkpt>
      <trkpt lat="44.44099" lon="1.05384">
        <ele>225.57</ele>
        <time>2016-06-24T15:12:31Z</time>
      </trkpt>
      <trkpt lat="44.441" lon="1.05382">
        <ele>225.57</ele>
        <time>2016-06-24T15:12:32Z</time>
      </trkpt>
      <trkpt lat="44.44102" lon="1.05381">
        <ele>225.57</ele>
        <time>2016-06-24T15:12:33Z</time>
      </trkpt>
      <trkpt lat="44.44103" lon="1.05379">
        <ele>225.57</ele>
        <time>2016-06-24T15:12:34Z</time>
      </trkpt>
      <trkpt lat="44.44103" lon="1.05377">
        <ele>225.57</ele>
        <time>2016-06-24T15:12:35Z</time>
      </trkpt>
      <trkpt lat="44.44104" lon="1.05375">
        <ele>225.57</ele>
        <time>2016-06-24T15:12:36Z</time>
      </trkpt>
      <trkpt lat="44.44105" lon="1.05374">
        <ele>225.57</ele>
        <time>2016-06-24T15:12:37Z</time>
      </trkpt>
      <trkpt lat="44.44106" lon="1.05372">
        <ele>225.57</ele>
        <time>2016-06-24T15:12:38Z</time>
      </trkpt>
      <trkpt lat="44.44107" lon="1.05371">
        <ele>225.57</ele>
        <time>2016-06-24T15:12:39Z</time>
      </trkpt>
      <trkpt lat="44.44109" lon="1.0537">
        <ele>225.57</ele>
        <time>2016-06-24T15:12:40Z</time>
      </trkpt>
      <trkpt lat="44.4411" lon="1.05368">
        <ele>225.57</ele>
        <time>2016-06-24T15:12:41Z</time>
      </trkpt>
      <trkpt lat="44.4412" lon="1.0536">
        <ele>225.57</ele>
        <time>2016-06-24T15:12:49Z</time>
      </trkpt>
      <trkpt lat="44.44123" lon="1.05356">
        <ele>225.57</ele>
        <time>2016-06-24T15:12:51Z</time>
      </trkpt>
      <trkpt lat="44.44124" lon="1.05355">
        <ele>225.57</ele>
        <time>2016-06-24T15:12:52Z</time>
      </trkpt>
      <trkpt lat="44.44126" lon="1.05354">
        <ele>225.57</ele>
        <time>2016-06-24T15:12:53Z</time>
      </trkpt>
      <trkpt lat="44.44127" lon="1.05353">
        <ele>225.57</ele>
        <time>2016-06-24T15:12:54Z</time>
      </trkpt>
      <trkpt lat="44.44128" lon="1.05352">
        <ele>225.57</ele>
        <time>2016-06-24T15:12:55Z</time>
      </trkpt>
      <trkpt lat="44.44129" lon="1.05351">
        <ele>225.57</ele>
        <time>2016-06-24T15:12:56Z</time>
      </trkpt>
      <trkpt lat="44.4413" lon="1.05349">
        <ele>226.53</ele>
        <time>2016-06-24T15:12:57Z</time>
      </trkpt>
      <trkpt lat="44.44132" lon="1.05348">
        <ele>226.53</ele>
        <time>2016-06-24T15:12:58Z</time>
      </trkpt>
      <trkpt lat="44.44133" lon="1.05346">
        <ele>226.53</ele>
        <time>2016-06-24T15:12:59Z</time>
      </trkpt>
      <trkpt lat="44.44134" lon="1.05345">
        <ele>226.53</ele>
        <time>2016-06-24T15:13:00Z</time>
      </trkpt>
      <trkpt lat="44.44135" lon="1.05344">
        <ele>226.53</ele>
        <time>2016-06-24T15:13:01Z</time>
      </trkpt>
      <trkpt lat="44.44136" lon="1.05342">
        <ele>226.53</ele>
        <time>2016-06-24T15:13:02Z</time>
      </trkpt>
      <trkpt lat="44.44137" lon="1.0534">
        <ele>226.53</ele>
        <time>2016-06-24T15:13:03Z</time>
      </trkpt>
      <trkpt lat="44.44138" lon="1.05339">
        <ele>226.53</ele>
        <time>2016-06-24T15:13:04Z</time>
      </trkpt>
      <trkpt lat="44.4414" lon="1.05337">
        <ele>226.53</ele>
        <time>2016-06-24T15:13:06Z</time>
      </trkpt>
      <trkpt lat="44.44141" lon="1.05335">
        <ele>226.53</ele>
        <time>2016-06-24T15:13:07Z</time>
      </trkpt>
      <trkpt lat="44.44142" lon="1.05334">
        <ele>226.53</ele>
        <time>2016-06-24T15:13:08Z</time>
      </trkpt>
      <trkpt lat="44.44144" lon="1.05332">
        <ele>226.53</ele>
        <time>2016-06-24T15:13:09Z</time>
      </trkpt>
      <trkpt lat="44.44145" lon="1.05331">
        <ele>226.53</ele>
        <time>2016-06-24T15:13:10Z</time>
      </trkpt>
      <trkpt lat="44.44147" lon="1.05328">
        <ele>226.53</ele>
        <time>2016-06-24T15:13:12Z</time>
      </trkpt>
      <trkpt lat="44.44149" lon="1.05326">
        <ele>226.53</ele>
        <time>2016-06-24T15:13:14Z</time>
      </trkpt>
      <trkpt lat="44.4415" lon="1.05325">
        <ele>226.53</ele>
        <time>2016-06-24T15:13:15Z</time>
      </trkpt>
      <trkpt lat="44.44151" lon="1.05324">
        <ele>226.53</ele>
        <time>2016-06-24T15:13:16Z</time>
      </trkpt>
      <trkpt lat="44.44154" lon="1.05323">
        <ele>227.01</ele>
        <time>2016-06-24T15:13:17Z</time>
      </trkpt>
      <trkpt lat="44.44155" lon="1.05322">
        <ele>227.01</ele>
        <time>2016-06-24T15:13:18Z</time>
      </trkpt>
      <trkpt lat="44.44156" lon="1.0532">
        <ele>227.01</ele>
        <time>2016-06-24T15:13:19Z</time>
      </trkpt>
      <trkpt lat="44.44162" lon="1.05315">
        <ele>227.01</ele>
        <time>2016-06-24T15:13:25Z</time>
      </trkpt>
      <trkpt lat="44.44176" lon="1.05303">
        <ele>227.49</ele>
        <time>2016-06-24T15:13:37Z</time>
      </trkpt>
      <trkpt lat="44.44179" lon="1.05301">
        <ele>227.49</ele>
        <time>2016-06-24T15:13:39Z</time>
      </trkpt>
      <trkpt lat="44.4419" lon="1.05295">
        <ele>227.97</ele>
        <time>2016-06-24T15:13:48Z</time>
      </trkpt>
      <trkpt lat="44.44195" lon="1.05292">
        <ele>227.97</ele>
        <time>2016-06-24T15:13:51Z</time>
      </trkpt>
      <trkpt lat="44.44196" lon="1.05291">
        <ele>227.97</ele>
        <time>2016-06-24T15:13:52Z</time>
      </trkpt>
      <trkpt lat="44.44206" lon="1.05282">
        <ele>227.97</ele>
        <time>2016-06-24T15:14:00Z</time>
      </trkpt>
      <trkpt lat="44.44207" lon="1.05281">
        <ele>227.97</ele>
        <time>2016-06-24T15:14:01Z</time>
      </trkpt>
      <trkpt lat="44.44208" lon="1.05281">
        <ele>227.97</ele>
        <time>2016-06-24T15:14:02Z</time>
      </trkpt>
      <trkpt lat="44.4421" lon="1.0528">
        <ele>227.97</ele>
        <time>2016-06-24T15:14:03Z</time>
      </trkpt>
      <trkpt lat="44.44212" lon="1.05279">
        <ele>227.97</ele>
        <time>2016-06-24T15:14:04Z</time>
      </trkpt>
      <trkpt lat="44.44213" lon="1.05278">
        <ele>227.97</ele>
        <time>2016-06-24T15:14:05Z</time>
      </trkpt>
      <trkpt lat="44.44214" lon="1.05277">
        <ele>227.97</ele>
        <time>2016-06-24T15:14:06Z</time>
      </trkpt>
      <trkpt lat="44.44216" lon="1.05276">
        <ele>227.97</ele>
        <time>2016-06-24T15:14:07Z</time>
      </trkpt>
      <trkpt lat="44.44216" lon="1.05274">
        <ele>227.97</ele>
        <time>2016-06-24T15:14:08Z</time>
      </trkpt>
      <trkpt lat="44.44219" lon="1.05272">
        <ele>228.45</ele>
        <time>2016-06-24T15:14:10Z</time>
      </trkpt>
      <trkpt lat="44.44224" lon="1.05268">
        <ele>228.45</ele>
        <time>2016-06-24T15:14:15Z</time>
      </trkpt>
      <trkpt lat="44.44225" lon="1.05266">
        <ele>228.45</ele>
        <time>2016-06-24T15:14:16Z</time>
      </trkpt>
      <trkpt lat="44.44227" lon="1.05265">
        <ele>228.45</ele>
        <time>2016-06-24T15:14:17Z</time>
      </trkpt>
      <trkpt lat="44.44228" lon="1.05264">
        <ele>228.45</ele>
        <time>2016-06-24T15:14:18Z</time>
      </trkpt>
      <trkpt lat="44.4423" lon="1.05264">
        <ele>228.45</ele>
        <time>2016-06-24T15:14:19Z</time>
      </trkpt>
      <trkpt lat="44.44231" lon="1.05263">
        <ele>228.45</ele>
        <time>2016-06-24T15:14:20Z</time>
      </trkpt>
      <trkpt lat="44.44232" lon="1.05261">
        <ele>228.45</ele>
        <time>2016-06-24T15:14:21Z</time>
      </trkpt>
      <trkpt lat="44.44233" lon="1.0526">
        <ele>228.45</ele>
        <time>2016-06-24T15:14:22Z</time>
      </trkpt>
      <trkpt lat="44.44235" lon="1.05259">
        <ele>228.45</ele>
        <time>2016-06-24T15:14:23Z</time>
      </trkpt>
      <trkpt lat="44.44247" lon="1.05246">
        <ele>228.45</ele>
        <time>2016-06-24T15:14:34Z</time>
      </trkpt>
      <trkpt lat="44.44248" lon="1.05244">
        <ele>228.45</ele>
        <time>2016-06-24T15:14:35Z</time>
      </trkpt>
      <trkpt lat="44.44256" lon="1.05239">
        <ele>228.45</ele>
        <time>2016-06-24T15:14:41Z</time>
      </trkpt>
      <trkpt lat="44.44259" lon="1.05236">
        <ele>228.45</ele>
        <time>2016-06-24T15:14:44Z</time>
      </trkpt>
      <trkpt lat="44.4426" lon="1.05235">
        <ele>228.45</ele>
        <time>2016-06-24T15:14:45Z</time>
      </trkpt>
      <trkpt lat="44.44271" lon="1.05224">
        <ele>228.45</ele>
        <time>2016-06-24T15:14:54Z</time>
      </trkpt>
      <trkpt lat="44.44273" lon="1.0522">
        <ele>228.45</ele>
        <time>2016-06-24T15:14:56Z</time>
      </trkpt>
      <trkpt lat="44.44274" lon="1.05219">
        <ele>228.45</ele>
        <time>2016-06-24T15:14:57Z</time>
      </trkpt>
      <trkpt lat="44.44283" lon="1.05208">
        <ele>228.45</ele>
        <time>2016-06-24T15:15:06Z</time>
      </trkpt>
      <trkpt lat="44.44297" lon="1.05197">
        <ele>227.01</ele>
        <time>2016-06-24T15:15:16Z</time>
      </trkpt>
      <trkpt lat="44.44299" lon="1.05197">
        <ele>227.01</ele>
        <time>2016-06-24T15:15:17Z</time>
      </trkpt>
      <trkpt lat="44.443" lon="1.05197">
        <ele>227.01</ele>
        <time>2016-06-24T15:15:18Z</time>
      </trkpt>
      <trkpt lat="44.44301" lon="1.05196">
        <ele>227.01</ele>
        <time>2016-06-24T15:15:19Z</time>
      </trkpt>
      <trkpt lat="44.44313" lon="1.05188">
        <ele>226.05</ele>
        <time>2016-06-24T15:15:28Z</time>
      </trkpt>
      <trkpt lat="44.44321" lon="1.05181">
        <ele>226.05</ele>
        <time>2016-06-24T15:15:34Z</time>
      </trkpt>
      <trkpt lat="44.44333" lon="1.05177">
        <ele>225.09</ele>
        <time>2016-06-24T15:15:43Z</time>
      </trkpt>
      <trkpt lat="44.44347" lon="1.05168">
        <ele>223.64</ele>
        <time>2016-06-24T15:15:53Z</time>
      </trkpt>
      <trkpt lat="44.44355" lon="1.05165">
        <ele>223.64</ele>
        <time>2016-06-24T15:15:59Z</time>
      </trkpt>
      <trkpt lat="44.44365" lon="1.05157">
        <ele>223.16</ele>
        <time>2016-06-24T15:16:08Z</time>
      </trkpt>
      <trkpt lat="44.44379" lon="1.05149">
        <ele>222.68</ele>
        <time>2016-06-24T15:16:17Z</time>
      </trkpt>
      <trkpt lat="44.44382" lon="1.05148">
        <ele>222.68</ele>
        <time>2016-06-24T15:16:20Z</time>
      </trkpt>
      <trkpt lat="44.44385" lon="1.05146">
        <ele>222.68</ele>
        <time>2016-06-24T15:16:22Z</time>
      </trkpt>
      <trkpt lat="44.44401" lon="1.05137">
        <ele>222.2</ele>
        <time>2016-06-24T15:16:34Z</time>
      </trkpt>
      <trkpt lat="44.44408" lon="1.05136">
        <ele>222.2</ele>
        <time>2016-06-24T15:16:39Z</time>
      </trkpt>
      <trkpt lat="44.44414" lon="1.05137">
        <ele>222.2</ele>
        <time>2016-06-24T15:16:43Z</time>
      </trkpt>
      <trkpt lat="44.44419" lon="1.05138">
        <ele>222.2</ele>
        <time>2016-06-24T15:16:48Z</time>
      </trkpt>
      <trkpt lat="44.44425" lon="1.05137">
        <ele>221.72</ele>
        <time>2016-06-24T15:16:52Z</time>
      </trkpt>
      <trkpt lat="44.44433" lon="1.0513">
        <ele>221.72</ele>
        <time>2016-06-24T15:16:59Z</time>
      </trkpt>
      <trkpt lat="44.44436" lon="1.05126">
        <ele>221.24</ele>
        <time>2016-06-24T15:17:02Z</time>
      </trkpt>
      <trkpt lat="44.44442" lon="1.05119">
        <ele>221.24</ele>
        <time>2016-06-24T15:17:07Z</time>
      </trkpt>
      <trkpt lat="44.44445" lon="1.05112">
        <ele>221.24</ele>
        <time>2016-06-24T15:17:11Z</time>
      </trkpt>
      <trkpt lat="44.44449" lon="1.05107">
        <ele>220.76</ele>
        <time>2016-06-24T15:17:15Z</time>
      </trkpt>
      <trkpt lat="44.4445" lon="1.05103">
        <ele>220.76</ele>
        <time>2016-06-24T15:17:17Z</time>
      </trkpt>
      <trkpt lat="44.44457" lon="1.05096">
        <ele>220.76</ele>
        <time>2016-06-24T15:17:22Z</time>
      </trkpt>
      <trkpt lat="44.44469" lon="1.05079">
        <ele>220.28</ele>
        <time>2016-06-24T15:17:34Z</time>
      </trkpt>
      <trkpt lat="44.44475" lon="1.05071">
        <ele>220.28</ele>
        <time>2016-06-24T15:17:40Z</time>
      </trkpt>
      <trkpt lat="44.44485" lon="1.0506">
        <ele>218.84</ele>
        <time>2016-06-24T15:17:50Z</time>
      </trkpt>
      <trkpt lat="44.44488" lon="1.05054">
        <ele>218.36</ele>
        <time>2016-06-24T15:17:54Z</time>
      </trkpt>
      <trkpt lat="44.44491" lon="1.05048">
        <ele>218.36</ele>
        <time>2016-06-24T15:17:58Z</time>
      </trkpt>
      <trkpt lat="44.44495" lon="1.05043">
        <ele>217.88</ele>
        <time>2016-06-24T15:18:02Z</time>
      </trkpt>
      <trkpt lat="44.44507" lon="1.05033">
        <ele>217.4</ele>
        <time>2016-06-24T15:18:12Z</time>
      </trkpt>
      <trkpt lat="44.44515" lon="1.05023">
        <ele>217.4</ele>
        <time>2016-06-24T15:18:18Z</time>
      </trkpt>
      <trkpt lat="44.44523" lon="1.05013">
        <ele>216.43</ele>
        <time>2016-06-24T15:18:26Z</time>
      </trkpt>
      <trkpt lat="44.44526" lon="1.0501">
        <ele>216.43</ele>
        <time>2016-06-24T15:18:29Z</time>
      </trkpt>
      <trkpt lat="44.4453" lon="1.05005">
        <ele>216.43</ele>
        <time>2016-06-24T15:18:33Z</time>
      </trkpt>
      <trkpt lat="44.44539" lon="1.04988">
        <ele>216.43</ele>
        <time>2016-06-24T15:18:43Z</time>
      </trkpt>
      <trkpt lat="44.44543" lon="1.04982">
        <ele>215.95</ele>
        <time>2016-06-24T15:18:47Z</time>
      </trkpt>
      <trkpt lat="44.44549" lon="1.04978">
        <ele>215.47</ele>
        <time>2016-06-24T15:18:51Z</time>
      </trkpt>
      <trkpt lat="44.44556" lon="1.04966">
        <ele>214.99</ele>
        <time>2016-06-24T15:18:59Z</time>
      </trkpt>
      <trkpt lat="44.44563" lon="1.04957">
        <ele>214.03</ele>
        <time>2016-06-24T15:19:05Z</time>
      </trkpt>
      <trkpt lat="44.44568" lon="1.04948">
        <ele>214.03</ele>
        <time>2016-06-24T15:19:11Z</time>
      </trkpt>
      <trkpt lat="44.44574" lon="1.04939">
        <ele>213.55</ele>
        <time>2016-06-24T15:19:17Z</time>
      </trkpt>
      <trkpt lat="44.4458" lon="1.04922">
        <ele>213.07</ele>
        <time>2016-06-24T15:19:27Z</time>
      </trkpt>
      <trkpt lat="44.44584" lon="1.04918">
        <ele>212.59</ele>
        <time>2016-06-24T15:19:30Z</time>
      </trkpt>
      <trkpt lat="44.44596" lon="1.04902">
        <ele>212.59</ele>
        <time>2016-06-24T15:19:41Z</time>
      </trkpt>
      <trkpt lat="44.44599" lon="1.04899">
        <ele>212.59</ele>
        <time>2016-06-24T15:19:44Z</time>
      </trkpt>
      <trkpt lat="44.44606" lon="1.04893">
        <ele>212.59</ele>
        <time>2016-06-24T15:19:51Z</time>
      </trkpt>
      <trkpt lat="44.4462" lon="1.04887">
        <ele>211.63</ele>
        <time>2016-06-24T15:20:02Z</time>
      </trkpt>
      <trkpt lat="44.44633" lon="1.04882">
        <ele>211.15</ele>
        <time>2016-06-24T15:20:12Z</time>
      </trkpt>
      <trkpt lat="44.44641" lon="1.04879">
        <ele>211.15</ele>
        <time>2016-06-24T15:20:17Z</time>
      </trkpt>
      <trkpt lat="44.44642" lon="1.04878">
        <ele>211.15</ele>
        <time>2016-06-24T15:20:18Z</time>
      </trkpt>
      <trkpt lat="44.44644" lon="1.04877">
        <ele>211.15</ele>
        <time>2016-06-24T15:20:20Z</time>
      </trkpt>
      <trkpt lat="44.44645" lon="1.04877">
        <ele>211.15</ele>
        <time>2016-06-24T15:20:21Z</time>
      </trkpt>
      <trkpt lat="44.4466" lon="1.04877">
        <ele>211.15</ele>
        <time>2016-06-24T15:20:32Z</time>
      </trkpt>
      <trkpt lat="44.44676" lon="1.04878">
        <ele>211.15</ele>
        <time>2016-06-24T15:20:44Z</time>
      </trkpt>
      <trkpt lat="44.44693" lon="1.04887">
        <ele>211.15</ele>
        <time>2016-06-24T15:20:57Z</time>
      </trkpt>
      <trkpt lat="44.44705" lon="1.04897">
        <ele>211.15</ele>
        <time>2016-06-24T15:21:07Z</time>
      </trkpt>
      <trkpt lat="44.44706" lon="1.04898">
        <ele>211.15</ele>
        <time>2016-06-24T15:21:08Z</time>
      </trkpt>
      <trkpt lat="44.44707" lon="1.04899">
        <ele>211.15</ele>
        <time>2016-06-24T15:21:09Z</time>
      </trkpt>
      <trkpt lat="44.44709" lon="1.04901">
        <ele>211.15</ele>
        <time>2016-06-24T15:21:11Z</time>
      </trkpt>
      <trkpt lat="44.44711" lon="1.04902">
        <ele>211.15</ele>
        <time>2016-06-24T15:21:12Z</time>
      </trkpt>
      <trkpt lat="44.44725" lon="1.04911">
        <ele>211.15</ele>
        <time>2016-06-24T15:21:23Z</time>
      </trkpt>
      <trkpt lat="44.44726" lon="1.04912">
        <ele>211.15</ele>
        <time>2016-06-24T15:21:24Z</time>
      </trkpt>
      <trkpt lat="44.44728" lon="1.04913">
        <ele>211.15</ele>
        <time>2016-06-24T15:21:25Z</time>
      </trkpt>
      <trkpt lat="44.4473" lon="1.04914">
        <ele>211.15</ele>
        <time>2016-06-24T15:21:27Z</time>
      </trkpt>
      <trkpt lat="44.44745" lon="1.04914">
        <ele>211.15</ele>
        <time>2016-06-24T15:21:38Z</time>
      </trkpt>
      <trkpt lat="44.44758" lon="1.04913">
        <ele>211.15</ele>
        <time>2016-06-24T15:21:47Z</time>
      </trkpt>
      <trkpt lat="44.4477" lon="1.04909">
        <ele>211.15</ele>
        <time>2016-06-24T15:21:57Z</time>
      </trkpt>
      <trkpt lat="44.44777" lon="1.04908">
        <ele>211.15</ele>
        <time>2016-06-24T15:22:02Z</time>
      </trkpt>
      <trkpt lat="44.44778" lon="1.04908">
        <ele>211.15</ele>
        <time>2016-06-24T15:22:03Z</time>
      </trkpt>
      <trkpt lat="44.4479" lon="1.04904">
        <ele>210.67</ele>
        <time>2016-06-24T15:22:13Z</time>
      </trkpt>
      <trkpt lat="44.44807" lon="1.04902">
        <ele>210.67</ele>
        <time>2016-06-24T15:22:24Z</time>
      </trkpt>
      <trkpt lat="44.44822" lon="1.04897">
        <ele>210.67</ele>
        <time>2016-06-24T15:22:35Z</time>
      </trkpt>
      <trkpt lat="44.44835" lon="1.04896">
        <ele>210.19</ele>
        <time>2016-06-24T15:22:43Z</time>
      </trkpt>
      <trkpt lat="44.44839" lon="1.04896">
        <ele>210.19</ele>
        <time>2016-06-24T15:22:45Z</time>
      </trkpt>
      <trkpt lat="44.44849" lon="1.04893">
        <ele>210.19</ele>
        <time>2016-06-24T15:22:53Z</time>
      </trkpt>
      <trkpt lat="44.44853" lon="1.04891">
        <ele>209.7</ele>
        <time>2016-06-24T15:22:56Z</time>
      </trkpt>
      <trkpt lat="44.44854" lon="1.04891">
        <ele>209.7</ele>
        <time>2016-06-24T15:22:57Z</time>
      </trkpt>
      <trkpt lat="44.44855" lon="1.0489">
        <ele>209.7</ele>
        <time>2016-06-24T15:22:58Z</time>
      </trkpt>
      <trkpt lat="44.44857" lon="1.0489">
        <ele>209.7</ele>
        <time>2016-06-24T15:22:59Z</time>
      </trkpt>
      <trkpt lat="44.44858" lon="1.04889">
        <ele>209.7</ele>
        <time>2016-06-24T15:23:00Z</time>
      </trkpt>
      <trkpt lat="44.44859" lon="1.04889">
        <ele>209.7</ele>
        <time>2016-06-24T15:23:01Z</time>
      </trkpt>
      <trkpt lat="44.44861" lon="1.04889">
        <ele>209.7</ele>
        <time>2016-06-24T15:23:02Z</time>
      </trkpt>
      <trkpt lat="44.44877" lon="1.04885">
        <ele>209.7</ele>
        <time>2016-06-24T15:23:12Z</time>
      </trkpt>
      <trkpt lat="44.44878" lon="1.04885">
        <ele>209.22</ele>
        <time>2016-06-24T15:23:13Z</time>
      </trkpt>
      <trkpt lat="44.44879" lon="1.04885">
        <ele>209.22</ele>
        <time>2016-06-24T15:23:14Z</time>
      </trkpt>
      <trkpt lat="44.44881" lon="1.04884">
        <ele>209.22</ele>
        <time>2016-06-24T15:23:15Z</time>
      </trkpt>
      <trkpt lat="44.44882" lon="1.04884">
        <ele>209.22</ele>
        <time>2016-06-24T15:23:16Z</time>
      </trkpt>
      <trkpt lat="44.44884" lon="1.04883">
        <ele>209.22</ele>
        <time>2016-06-24T15:23:17Z</time>
      </trkpt>
      <trkpt lat="44.44886" lon="1.04883">
        <ele>209.22</ele>
        <time>2016-06-24T15:23:18Z</time>
      </trkpt>
      <trkpt lat="44.44887" lon="1.04882">
        <ele>209.22</ele>
        <time>2016-06-24T15:23:19Z</time>
      </trkpt>
      <trkpt lat="44.44888" lon="1.04882">
        <ele>209.22</ele>
        <time>2016-06-24T15:23:20Z</time>
      </trkpt>
      <trkpt lat="44.4489" lon="1.04881">
        <ele>209.22</ele>
        <time>2016-06-24T15:23:21Z</time>
      </trkpt>
      <trkpt lat="44.44891" lon="1.04881">
        <ele>209.22</ele>
        <time>2016-06-24T15:23:22Z</time>
      </trkpt>
      <trkpt lat="44.44894" lon="1.04879">
        <ele>209.22</ele>
        <time>2016-06-24T15:23:24Z</time>
      </trkpt>
      <trkpt lat="44.44896" lon="1.04878">
        <ele>209.22</ele>
        <time>2016-06-24T15:23:26Z</time>
      </trkpt>
      <trkpt lat="44.44903" lon="1.04877">
        <ele>209.22</ele>
        <time>2016-06-24T15:23:31Z</time>
      </trkpt>
      <trkpt lat="44.44904" lon="1.04878">
        <ele>209.22</ele>
        <time>2016-06-24T15:23:32Z</time>
      </trkpt>
      <trkpt lat="44.44906" lon="1.04877">
        <ele>209.22</ele>
        <time>2016-06-24T15:23:33Z</time>
      </trkpt>
      <trkpt lat="44.44919" lon="1.04875">
        <ele>209.22</ele>
        <time>2016-06-24T15:23:42Z</time>
      </trkpt>
      <trkpt lat="44.44924" lon="1.04874">
        <ele>208.74</ele>
        <time>2016-06-24T15:23:45Z</time>
      </trkpt>
      <trkpt lat="44.44934" lon="1.04872">
        <ele>208.74</ele>
        <time>2016-06-24T15:23:53Z</time>
      </trkpt>
      <trkpt lat="44.44935" lon="1.04872">
        <ele>208.74</ele>
        <time>2016-06-24T15:23:54Z</time>
      </trkpt>
      <trkpt lat="44.44945" lon="1.04873">
        <ele>208.74</ele>
        <time>2016-06-24T15:24:01Z</time>
      </trkpt>
      <trkpt lat="44.44963" lon="1.04875">
        <ele>208.74</ele>
        <time>2016-06-24T15:24:13Z</time>
      </trkpt>
      <trkpt lat="44.44977" lon="1.04879">
        <ele>208.26</ele>
        <time>2016-06-24T15:24:23Z</time>
      </trkpt>
      <trkpt lat="44.44982" lon="1.04879">
        <ele>208.26</ele>
        <time>2016-06-24T15:24:28Z</time>
      </trkpt>
      <trkpt lat="44.44984" lon="1.04879">
        <ele>208.26</ele>
        <time>2016-06-24T15:24:29Z</time>
      </trkpt>
      <trkpt lat="44.44985" lon="1.04878">
        <ele>208.26</ele>
        <time>2016-06-24T15:24:30Z</time>
      </trkpt>
      <trkpt lat="44.44987" lon="1.04878">
        <ele>208.26</ele>
        <time>2016-06-24T15:24:31Z</time>
      </trkpt>
      <trkpt lat="44.44988" lon="1.04877">
        <ele>208.26</ele>
        <time>2016-06-24T15:24:32Z</time>
      </trkpt>
      <trkpt lat="44.4499" lon="1.04877">
        <ele>208.26</ele>
        <time>2016-06-24T15:24:33Z</time>
      </trkpt>
      <trkpt lat="44.44991" lon="1.04877">
        <ele>208.26</ele>
        <time>2016-06-24T15:24:34Z</time>
      </trkpt>
      <trkpt lat="44.44997" lon="1.04876">
        <ele>208.26</ele>
        <time>2016-06-24T15:24:43Z</time>
      </trkpt>
      <trkpt lat="44.45" lon="1.04876">
        <ele>208.26</ele>
        <time>2016-06-24T15:24:45Z</time>
      </trkpt>
      <trkpt lat="44.45002" lon="1.04876">
        <ele>208.26</ele>
        <time>2016-06-24T15:24:46Z</time>
      </trkpt>
      <trkpt lat="44.45004" lon="1.04876">
        <ele>208.26</ele>
        <time>2016-06-24T15:24:47Z</time>
      </trkpt>
      <trkpt lat="44.45006" lon="1.04876">
        <ele>208.26</ele>
        <time>2016-06-24T15:24:48Z</time>
      </trkpt>
      <trkpt lat="44.45007" lon="1.04876">
        <ele>208.26</ele>
        <time>2016-06-24T15:24:49Z</time>
      </trkpt>
      <trkpt lat="44.45008" lon="1.04876">
        <ele>208.26</ele>
        <time>2016-06-24T15:24:50Z</time>
      </trkpt>
      <trkpt lat="44.4501" lon="1.04876">
        <ele>208.26</ele>
        <time>2016-06-24T15:24:51Z</time>
      </trkpt>
      <trkpt lat="44.45011" lon="1.04876">
        <ele>208.26</ele>
        <time>2016-06-24T15:24:52Z</time>
      </trkpt>
      <trkpt lat="44.45016" lon="1.04873">
        <ele>208.26</ele>
        <time>2016-06-24T15:24:56Z</time>
      </trkpt>
      <trkpt lat="44.45018" lon="1.04873">
        <ele>208.26</ele>
        <time>2016-06-24T15:24:57Z</time>
      </trkpt>
      <trkpt lat="44.45024" lon="1.04871">
        <ele>208.74</ele>
        <time>2016-06-24T15:25:01Z</time>
      </trkpt>
      <trkpt lat="44.45039" lon="1.04868">
        <ele>207.78</ele>
        <time>2016-06-24T15:25:12Z</time>
      </trkpt>
      <trkpt lat="44.45046" lon="1.04865">
        <ele>207.3</ele>
        <time>2016-06-24T15:25:17Z</time>
      </trkpt>
      <trkpt lat="44.45048" lon="1.04863">
        <ele>207.3</ele>
        <time>2016-06-24T15:25:19Z</time>
      </trkpt>
      <trkpt lat="44.45059" lon="1.04861">
        <ele>206.82</ele>
        <time>2016-06-24T15:25:29Z</time>
      </trkpt>
      <trkpt lat="44.4506" lon="1.04861">
        <ele>206.82</ele>
        <time>2016-06-24T15:25:30Z</time>
      </trkpt>
      <trkpt lat="44.45075" lon="1.04862">
        <ele>206.34</ele>
        <time>2016-06-24T15:25:41Z</time>
      </trkpt>
      <trkpt lat="44.45078" lon="1.04862">
        <ele>206.34</ele>
        <time>2016-06-24T15:25:43Z</time>
      </trkpt>
      <trkpt lat="44.45079" lon="1.04863">
        <ele>206.34</ele>
        <time>2016-06-24T15:25:44Z</time>
      </trkpt>
      <trkpt lat="44.45081" lon="1.04864">
        <ele>205.86</ele>
        <time>2016-06-24T15:25:45Z</time>
      </trkpt>
      <trkpt lat="44.45082" lon="1.04864">
        <ele>205.86</ele>
        <time>2016-06-24T15:25:46Z</time>
      </trkpt>
      <trkpt lat="44.45084" lon="1.04864">
        <ele>205.86</ele>
        <time>2016-06-24T15:25:47Z</time>
      </trkpt>
      <trkpt lat="44.4509" lon="1.04863">
        <ele>205.86</ele>
        <time>2016-06-24T15:25:52Z</time>
      </trkpt>
      <trkpt lat="44.45092" lon="1.04863">
        <ele>205.86</ele>
        <time>2016-06-24T15:25:53Z</time>
      </trkpt>
      <trkpt lat="44.45093" lon="1.04863">
        <ele>205.86</ele>
        <time>2016-06-24T15:25:54Z</time>
      </trkpt>
      <trkpt lat="44.45095" lon="1.04863">
        <ele>205.86</ele>
        <time>2016-06-24T15:25:55Z</time>
      </trkpt>
      <trkpt lat="44.45096" lon="1.04863">
        <ele>205.86</ele>
        <time>2016-06-24T15:25:56Z</time>
      </trkpt>
      <trkpt lat="44.45098" lon="1.04863">
        <ele>205.86</ele>
        <time>2016-06-24T15:25:57Z</time>
      </trkpt>
      <trkpt lat="44.45099" lon="1.04863">
        <ele>205.86</ele>
        <time>2016-06-24T15:25:58Z</time>
      </trkpt>
      <trkpt lat="44.45112" lon="1.04863">
        <ele>205.86</ele>
        <time>2016-06-24T15:26:07Z</time>
      </trkpt>
      <trkpt lat="44.45128" lon="1.04861">
        <ele>205.86</ele>
        <time>2016-06-24T15:26:18Z</time>
      </trkpt>
      <trkpt lat="44.45135" lon="1.04856">
        <ele>206.34</ele>
        <time>2016-06-24T15:26:27Z</time>
      </trkpt>
      <trkpt lat="44.45145" lon="1.04849">
        <ele>206.34</ele>
        <time>2016-06-24T15:26:37Z</time>
      </trkpt>
      <trkpt lat="44.45147" lon="1.04849">
        <ele>206.34</ele>
        <time>2016-06-24T15:26:38Z</time>
      </trkpt>
      <trkpt lat="44.45156" lon="1.04846">
        <ele>206.34</ele>
        <time>2016-06-24T15:26:45Z</time>
      </trkpt>
      <trkpt lat="44.45169" lon="1.04841">
        <ele>206.34</ele>
        <time>2016-06-24T15:26:55Z</time>
      </trkpt>
      <trkpt lat="44.45181" lon="1.04834">
        <ele>206.34</ele>
        <time>2016-06-24T15:27:07Z</time>
      </trkpt>
      <trkpt lat="44.45193" lon="1.04822">
        <ele>206.34</ele>
        <time>2016-06-24T15:27:19Z</time>
      </trkpt>
      <trkpt lat="44.45197" lon="1.04819">
        <ele>206.34</ele>
        <time>2016-06-24T15:27:22Z</time>
      </trkpt>
      <trkpt lat="44.45202" lon="1.04816">
        <ele>206.34</ele>
        <time>2016-06-24T15:27:26Z</time>
      </trkpt>
      <trkpt lat="44.45203" lon="1.04815">
        <ele>206.34</ele>
        <time>2016-06-24T15:27:27Z</time>
      </trkpt>
      <trkpt lat="44.45204" lon="1.04814">
        <ele>206.34</ele>
        <time>2016-06-24T15:27:28Z</time>
      </trkpt>
      <trkpt lat="44.45205" lon="1.04808">
        <ele>206.34</ele>
        <time>2016-06-24T15:27:33Z</time>
      </trkpt>
      <trkpt lat="44.45205" lon="1.04808">
        <ele>206.34</ele>
        <time>2016-06-24T15:27:34Z</time>
      </trkpt>
      <trkpt lat="44.45202" lon="1.04802">
        <ele>206.34</ele>
        <time>2016-06-24T15:27:39Z</time>
      </trkpt>
      <trkpt lat="44.45199" lon="1.04787">
        <ele>206.34</ele>
        <time>2016-06-24T15:27:51Z</time>
      </trkpt>
      <trkpt lat="44.45197" lon="1.04785">
        <ele>206.34</ele>
        <time>2016-06-24T15:28:04Z</time>
      </trkpt>
      <trkpt lat="44.45198" lon="1.04784">
        <ele>206.34</ele>
        <time>2016-06-24T15:28:24Z</time>
      </trkpt>
      <trkpt lat="44.45198" lon="1.04782">
        <ele>206.34</ele>
        <time>2016-06-24T15:28:40Z</time>
      </trkpt>
      <trkpt lat="44.45199" lon="1.04782">
        <ele>206.82</ele>
        <time>2016-06-24T15:28:52Z</time>
      </trkpt>
      <trkpt lat="44.45199" lon="1.04782">
        <ele>206.82</ele>
        <time>2016-06-24T15:28:53Z</time>
      </trkpt>
    </trkseg>
  </trk>
</gpx>